<?xml version="1.0" encoding="UTF-8" standalone="no" ?>
<gpx xmlns="http://www.topografix.com/GPX/1/1" xmlns:xsi="http://www.w3.org/2001/XMLSchema-instance" xsi:schemaLocation="http://www.topografix.com/GPX/1/1 http://www.topografix.com/GPX/1/1/gpx.xsd" version="1.1" creator="VisuGPX - https://www.visugpx.com">
  <metadata>
    <name>St Guilhem le Désert depuis la D122</name>
    <desc><![CDATA[Descente par le Max Nègre jusqu'à St Guilhem.
Remontée par le cirque de l'infernet.]]></desc>
  </metadata>
  <trk>
    <name><![CDATA[2023-02-13 15:09:50]]></name>
    <trkseg>
      <trkpt lat="43.73929" lon="3.49939">
        <ele>457.56</ele>
        <time>2023-02-13T08:40:22Z</time>
      </trkpt>
      <trkpt lat="43.7393" lon="3.4994">
        <ele>450.82</ele>
        <time>2023-02-13T08:40:26Z</time>
      </trkpt>
      <trkpt lat="43.7393" lon="3.4994">
        <ele>450.82</ele>
        <time>2023-02-13T08:40:27Z</time>
      </trkpt>
      <trkpt lat="43.7393" lon="3.4994">
        <ele>459.49</ele>
        <time>2023-02-13T08:40:28Z</time>
      </trkpt>
      <trkpt lat="43.73929" lon="3.49939">
        <ele>453.72</ele>
        <time>2023-02-13T08:40:29Z</time>
      </trkpt>
      <trkpt lat="43.73929" lon="3.49939">
        <ele>458.45</ele>
        <time>2023-02-13T08:40:30Z</time>
      </trkpt>
      <trkpt lat="43.73928" lon="3.49939">
        <ele>451.01</ele>
        <time>2023-02-13T08:40:31Z</time>
      </trkpt>
      <trkpt lat="43.73928" lon="3.49939">
        <ele>459.01</ele>
        <time>2023-02-13T08:40:32Z</time>
      </trkpt>
      <trkpt lat="43.73928" lon="3.49939">
        <ele>455.51</ele>
        <time>2023-02-13T08:40:35Z</time>
      </trkpt>
      <trkpt lat="43.73928" lon="3.49939">
        <ele>455.51</ele>
        <time>2023-02-13T08:40:36Z</time>
      </trkpt>
      <trkpt lat="43.73928" lon="3.49938">
        <ele>453.86</ele>
        <time>2023-02-13T08:40:39Z</time>
      </trkpt>
      <trkpt lat="43.73927" lon="3.49937">
        <ele>456.51</ele>
        <time>2023-02-13T08:40:48Z</time>
      </trkpt>
      <trkpt lat="43.73927" lon="3.49937">
        <ele>453.69</ele>
        <time>2023-02-13T08:40:50Z</time>
      </trkpt>
      <trkpt lat="43.73928" lon="3.49938">
        <ele>456</ele>
        <time>2023-02-13T08:40:52Z</time>
      </trkpt>
      <trkpt lat="43.73927" lon="3.49938">
        <ele>452.52</ele>
        <time>2023-02-13T08:40:55Z</time>
      </trkpt>
      <trkpt lat="43.73927" lon="3.49939">
        <ele>455.86</ele>
        <time>2023-02-13T08:40:56Z</time>
      </trkpt>
      <trkpt lat="43.73927" lon="3.49939">
        <ele>452.39</ele>
        <time>2023-02-13T08:41:00Z</time>
      </trkpt>
      <trkpt lat="43.73927" lon="3.49939">
        <ele>456.64</ele>
        <time>2023-02-13T08:41:01Z</time>
      </trkpt>
      <trkpt lat="43.73927" lon="3.4994">
        <ele>445.15</ele>
        <time>2023-02-13T08:41:14Z</time>
      </trkpt>
      <trkpt lat="43.73927" lon="3.4994">
        <ele>454.95</ele>
        <time>2023-02-13T08:41:15Z</time>
      </trkpt>
      <trkpt lat="43.73928" lon="3.4994">
        <ele>453.93</ele>
        <time>2023-02-13T08:41:44Z</time>
      </trkpt>
      <trkpt lat="43.73928" lon="3.4994">
        <ele>453.81</ele>
        <time>2023-02-13T08:42:18Z</time>
      </trkpt>
      <trkpt lat="43.73929" lon="3.49939">
        <ele>453.72</ele>
        <time>2023-02-13T08:42:43Z</time>
      </trkpt>
      <trkpt lat="43.7393" lon="3.49937">
        <ele>453.66</ele>
        <time>2023-02-13T08:43:00Z</time>
      </trkpt>
      <trkpt lat="43.7393" lon="3.49937">
        <ele>453.47</ele>
        <time>2023-02-13T08:43:57Z</time>
      </trkpt>
      <trkpt lat="43.7393" lon="3.49937">
        <ele>453.36</ele>
        <time>2023-02-13T08:44:34Z</time>
      </trkpt>
      <trkpt lat="43.7393" lon="3.49938">
        <ele>453.22</ele>
        <time>2023-02-13T08:45:22Z</time>
      </trkpt>
      <trkpt lat="43.7393" lon="3.49939">
        <ele>453.03</ele>
        <time>2023-02-13T08:46:28Z</time>
      </trkpt>
      <trkpt lat="43.73932" lon="3.49937">
        <ele>452.98</ele>
        <time>2023-02-13T08:46:44Z</time>
      </trkpt>
      <trkpt lat="43.73933" lon="3.49939">
        <ele>448.67</ele>
        <time>2023-02-13T08:46:46Z</time>
      </trkpt>
      <trkpt lat="43.73933" lon="3.4994">
        <ele>453.31</ele>
        <time>2023-02-13T08:46:47Z</time>
      </trkpt>
      <trkpt lat="43.73933" lon="3.49942">
        <ele>447.74</ele>
        <time>2023-02-13T08:46:48Z</time>
      </trkpt>
      <trkpt lat="43.73934" lon="3.49943">
        <ele>454.8</ele>
        <time>2023-02-13T08:46:49Z</time>
      </trkpt>
      <trkpt lat="43.73934" lon="3.49943">
        <ele>454.8</ele>
        <time>2023-02-13T08:46:50Z</time>
      </trkpt>
      <trkpt lat="43.73935" lon="3.49945">
        <ele>454.79</ele>
        <time>2023-02-13T08:46:54Z</time>
      </trkpt>
      <trkpt lat="43.73936" lon="3.49951">
        <ele>454.76</ele>
        <time>2023-02-13T08:46:59Z</time>
      </trkpt>
      <trkpt lat="43.73937" lon="3.49957">
        <ele>454.67</ele>
        <time>2023-02-13T08:47:03Z</time>
      </trkpt>
      <trkpt lat="43.73937" lon="3.49964">
        <ele>452.34</ele>
        <time>2023-02-13T08:47:07Z</time>
      </trkpt>
      <trkpt lat="43.73946" lon="3.50005">
        <ele>452.34</ele>
        <time>2023-02-13T08:47:30Z</time>
      </trkpt>
      <trkpt lat="43.7396" lon="3.50019">
        <ele>452.32</ele>
        <time>2023-02-13T08:47:43Z</time>
      </trkpt>
      <trkpt lat="43.73987" lon="3.50023">
        <ele>452.28</ele>
        <time>2023-02-13T08:48:03Z</time>
      </trkpt>
      <trkpt lat="43.73993" lon="3.50045">
        <ele>452.26</ele>
        <time>2023-02-13T08:48:17Z</time>
      </trkpt>
      <trkpt lat="43.73982" lon="3.50074">
        <ele>452.19</ele>
        <time>2023-02-13T08:48:34Z</time>
      </trkpt>
      <trkpt lat="43.73978" lon="3.50079">
        <ele>454.51</ele>
        <time>2023-02-13T08:48:38Z</time>
      </trkpt>
      <trkpt lat="43.7397" lon="3.50111">
        <ele>454.43</ele>
        <time>2023-02-13T08:48:57Z</time>
      </trkpt>
      <trkpt lat="43.73985" lon="3.50149">
        <ele>454.34</ele>
        <time>2023-02-13T08:49:21Z</time>
      </trkpt>
      <trkpt lat="43.74001" lon="3.50131">
        <ele>454.29</ele>
        <time>2023-02-13T08:49:37Z</time>
      </trkpt>
      <trkpt lat="43.74024" lon="3.5012">
        <ele>454.23</ele>
        <time>2023-02-13T08:49:54Z</time>
      </trkpt>
      <trkpt lat="43.74048" lon="3.50094">
        <ele>454.16</ele>
        <time>2023-02-13T08:50:16Z</time>
      </trkpt>
      <trkpt lat="43.74067" lon="3.50093">
        <ele>454.94</ele>
        <time>2023-02-13T08:50:33Z</time>
      </trkpt>
      <trkpt lat="43.74085" lon="3.50109">
        <ele>455.67</ele>
        <time>2023-02-13T08:50:51Z</time>
      </trkpt>
      <trkpt lat="43.74095" lon="3.50142">
        <ele>457.4</ele>
        <time>2023-02-13T08:51:11Z</time>
      </trkpt>
      <trkpt lat="43.74113" lon="3.50168">
        <ele>457.36</ele>
        <time>2023-02-13T08:51:30Z</time>
      </trkpt>
      <trkpt lat="43.74131" lon="3.50196">
        <ele>457.34</ele>
        <time>2023-02-13T08:51:51Z</time>
      </trkpt>
      <trkpt lat="43.74133" lon="3.50223">
        <ele>457.31</ele>
        <time>2023-02-13T08:52:08Z</time>
      </trkpt>
      <trkpt lat="43.74129" lon="3.50244">
        <ele>457.27</ele>
        <time>2023-02-13T08:52:23Z</time>
      </trkpt>
      <trkpt lat="43.74123" lon="3.50262">
        <ele>454.99</ele>
        <time>2023-02-13T08:52:35Z</time>
      </trkpt>
      <trkpt lat="43.74119" lon="3.50282">
        <ele>448.95</ele>
        <time>2023-02-13T08:52:47Z</time>
      </trkpt>
      <trkpt lat="43.74119" lon="3.50283">
        <ele>453.17</ele>
        <time>2023-02-13T08:52:48Z</time>
      </trkpt>
      <trkpt lat="43.74119" lon="3.50284">
        <ele>448.06</ele>
        <time>2023-02-13T08:52:49Z</time>
      </trkpt>
      <trkpt lat="43.74119" lon="3.50285">
        <ele>454.53</ele>
        <time>2023-02-13T08:52:50Z</time>
      </trkpt>
      <trkpt lat="43.74118" lon="3.50287">
        <ele>454.53</ele>
        <time>2023-02-13T08:52:51Z</time>
      </trkpt>
      <trkpt lat="43.74118" lon="3.50299">
        <ele>452.18</ele>
        <time>2023-02-13T08:53:01Z</time>
      </trkpt>
      <trkpt lat="43.74117" lon="3.5033">
        <ele>449.72</ele>
        <time>2023-02-13T08:53:20Z</time>
      </trkpt>
      <trkpt lat="43.74115" lon="3.50354">
        <ele>447.87</ele>
        <time>2023-02-13T08:53:36Z</time>
      </trkpt>
      <trkpt lat="43.74113" lon="3.50372">
        <ele>446.22</ele>
        <time>2023-02-13T08:53:49Z</time>
      </trkpt>
      <trkpt lat="43.74104" lon="3.50403">
        <ele>443.54</ele>
        <time>2023-02-13T08:54:09Z</time>
      </trkpt>
      <trkpt lat="43.7409" lon="3.50436">
        <ele>441.07</ele>
        <time>2023-02-13T08:54:31Z</time>
      </trkpt>
      <trkpt lat="43.7409" lon="3.50464">
        <ele>439.3</ele>
        <time>2023-02-13T08:54:47Z</time>
      </trkpt>
      <trkpt lat="43.74094" lon="3.505">
        <ele>436.89</ele>
        <time>2023-02-13T08:55:08Z</time>
      </trkpt>
      <trkpt lat="43.74097" lon="3.5051">
        <ele>436.87</ele>
        <time>2023-02-13T08:55:16Z</time>
      </trkpt>
      <trkpt lat="43.74098" lon="3.50521">
        <ele>436.1</ele>
        <time>2023-02-13T08:55:24Z</time>
      </trkpt>
      <trkpt lat="43.741" lon="3.50531">
        <ele>436.09</ele>
        <time>2023-02-13T08:55:30Z</time>
      </trkpt>
      <trkpt lat="43.741" lon="3.50559">
        <ele>434.38</ele>
        <time>2023-02-13T08:55:46Z</time>
      </trkpt>
      <trkpt lat="43.741" lon="3.50589">
        <ele>431.98</ele>
        <time>2023-02-13T08:56:04Z</time>
      </trkpt>
      <trkpt lat="43.74092" lon="3.50625">
        <ele>431.11</ele>
        <time>2023-02-13T08:56:25Z</time>
      </trkpt>
      <trkpt lat="43.74078" lon="3.50653">
        <ele>430.24</ele>
        <time>2023-02-13T08:56:45Z</time>
      </trkpt>
      <trkpt lat="43.74071" lon="3.50678">
        <ele>429.42</ele>
        <time>2023-02-13T08:57:02Z</time>
      </trkpt>
      <trkpt lat="43.74071" lon="3.50681">
        <ele>428.53</ele>
        <time>2023-02-13T08:57:17Z</time>
      </trkpt>
      <trkpt lat="43.74067" lon="3.5069">
        <ele>428.51</ele>
        <time>2023-02-13T08:57:25Z</time>
      </trkpt>
      <trkpt lat="43.74067" lon="3.50692">
        <ele>428.51</ele>
        <time>2023-02-13T08:57:34Z</time>
      </trkpt>
      <trkpt lat="43.74067" lon="3.50693">
        <ele>427.65</ele>
        <time>2023-02-13T08:58:29Z</time>
      </trkpt>
      <trkpt lat="43.74067" lon="3.50694">
        <ele>427.75</ele>
        <time>2023-02-13T09:00:09Z</time>
      </trkpt>
      <trkpt lat="43.74066" lon="3.50693">
        <ele>427.86</ele>
        <time>2023-02-13T09:01:28Z</time>
      </trkpt>
      <trkpt lat="43.74067" lon="3.50693">
        <ele>426.47</ele>
        <time>2023-02-13T09:01:39Z</time>
      </trkpt>
      <trkpt lat="43.74067" lon="3.50693">
        <ele>429.5</ele>
        <time>2023-02-13T09:01:40Z</time>
      </trkpt>
      <trkpt lat="43.74067" lon="3.50693">
        <ele>424.95</ele>
        <time>2023-02-13T09:01:41Z</time>
      </trkpt>
      <trkpt lat="43.74066" lon="3.50693">
        <ele>428.13</ele>
        <time>2023-02-13T09:01:42Z</time>
      </trkpt>
      <trkpt lat="43.74067" lon="3.50693">
        <ele>429.37</ele>
        <time>2023-02-13T09:01:44Z</time>
      </trkpt>
      <trkpt lat="43.74066" lon="3.507">
        <ele>429.39</ele>
        <time>2023-02-13T09:01:58Z</time>
      </trkpt>
      <trkpt lat="43.74067" lon="3.50698">
        <ele>429.39</ele>
        <time>2023-02-13T09:02:38Z</time>
      </trkpt>
      <trkpt lat="43.74058" lon="3.50714">
        <ele>425.02</ele>
        <time>2023-02-13T09:02:51Z</time>
      </trkpt>
      <trkpt lat="43.74057" lon="3.50714">
        <ele>428.73</ele>
        <time>2023-02-13T09:02:52Z</time>
      </trkpt>
      <trkpt lat="43.74053" lon="3.50718">
        <ele>422.26</ele>
        <time>2023-02-13T09:02:56Z</time>
      </trkpt>
      <trkpt lat="43.74053" lon="3.50719">
        <ele>428.92</ele>
        <time>2023-02-13T09:02:57Z</time>
      </trkpt>
      <trkpt lat="43.74037" lon="3.50742">
        <ele>429</ele>
        <time>2023-02-13T09:03:16Z</time>
      </trkpt>
      <trkpt lat="43.74022" lon="3.50768">
        <ele>429.93</ele>
        <time>2023-02-13T09:03:36Z</time>
      </trkpt>
      <trkpt lat="43.74009" lon="3.50795">
        <ele>429.79</ele>
        <time>2023-02-13T09:03:55Z</time>
      </trkpt>
      <trkpt lat="43.73993" lon="3.50815">
        <ele>429.74</ele>
        <time>2023-02-13T09:04:13Z</time>
      </trkpt>
      <trkpt lat="43.73991" lon="3.50819">
        <ele>429.72</ele>
        <time>2023-02-13T09:04:29Z</time>
      </trkpt>
      <trkpt lat="43.73982" lon="3.50828">
        <ele>429.63</ele>
        <time>2023-02-13T09:04:48Z</time>
      </trkpt>
      <trkpt lat="43.73973" lon="3.50833">
        <ele>429.61</ele>
        <time>2023-02-13T09:05:04Z</time>
      </trkpt>
      <trkpt lat="43.73969" lon="3.50833">
        <ele>429.52</ele>
        <time>2023-02-13T09:05:39Z</time>
      </trkpt>
      <trkpt lat="43.73955" lon="3.50838">
        <ele>429.49</ele>
        <time>2023-02-13T09:05:54Z</time>
      </trkpt>
      <trkpt lat="43.73939" lon="3.50842">
        <ele>429.49</ele>
        <time>2023-02-13T09:06:08Z</time>
      </trkpt>
      <trkpt lat="43.73924" lon="3.50849">
        <ele>429.45</ele>
        <time>2023-02-13T09:06:22Z</time>
      </trkpt>
      <trkpt lat="43.73904" lon="3.5086">
        <ele>429.29</ele>
        <time>2023-02-13T09:06:38Z</time>
      </trkpt>
      <trkpt lat="43.73897" lon="3.50863">
        <ele>426.91</ele>
        <time>2023-02-13T09:06:43Z</time>
      </trkpt>
      <trkpt lat="43.73873" lon="3.5086">
        <ele>426.94</ele>
        <time>2023-02-13T09:07:03Z</time>
      </trkpt>
      <trkpt lat="43.73852" lon="3.50864">
        <ele>426.92</ele>
        <time>2023-02-13T09:07:19Z</time>
      </trkpt>
      <trkpt lat="43.73838" lon="3.5089">
        <ele>426.81</ele>
        <time>2023-02-13T09:07:38Z</time>
      </trkpt>
      <trkpt lat="43.73833" lon="3.50899">
        <ele>429.1</ele>
        <time>2023-02-13T09:07:46Z</time>
      </trkpt>
      <trkpt lat="43.73817" lon="3.50913">
        <ele>430.69</ele>
        <time>2023-02-13T09:08:03Z</time>
      </trkpt>
      <trkpt lat="43.73801" lon="3.5093">
        <ele>432.34</ele>
        <time>2023-02-13T09:08:21Z</time>
      </trkpt>
      <trkpt lat="43.73788" lon="3.50949">
        <ele>434.96</ele>
        <time>2023-02-13T09:08:39Z</time>
      </trkpt>
      <trkpt lat="43.73785" lon="3.50951">
        <ele>435.73</ele>
        <time>2023-02-13T09:08:42Z</time>
      </trkpt>
      <trkpt lat="43.73765" lon="3.50956">
        <ele>438.22</ele>
        <time>2023-02-13T09:09:01Z</time>
      </trkpt>
      <trkpt lat="43.73754" lon="3.50976">
        <ele>439.71</ele>
        <time>2023-02-13T09:09:18Z</time>
      </trkpt>
      <trkpt lat="43.73744" lon="3.50995">
        <ele>442.34</ele>
        <time>2023-02-13T09:09:36Z</time>
      </trkpt>
      <trkpt lat="43.73741" lon="3.51002">
        <ele>443.21</ele>
        <time>2023-02-13T09:09:42Z</time>
      </trkpt>
      <trkpt lat="43.73732" lon="3.51025">
        <ele>445.59</ele>
        <time>2023-02-13T09:10:01Z</time>
      </trkpt>
      <trkpt lat="43.7372" lon="3.5105">
        <ele>447.32</ele>
        <time>2023-02-13T09:10:21Z</time>
      </trkpt>
      <trkpt lat="43.73709" lon="3.51079">
        <ele>448.96</ele>
        <time>2023-02-13T09:10:43Z</time>
      </trkpt>
      <trkpt lat="43.737" lon="3.51099">
        <ele>450.78</ele>
        <time>2023-02-13T09:11:00Z</time>
      </trkpt>
      <trkpt lat="43.73696" lon="3.51117">
        <ele>452.49</ele>
        <time>2023-02-13T09:11:14Z</time>
      </trkpt>
      <trkpt lat="43.73702" lon="3.51136">
        <ele>454.29</ele>
        <time>2023-02-13T09:11:28Z</time>
      </trkpt>
      <trkpt lat="43.73697" lon="3.51146">
        <ele>455.3</ele>
        <time>2023-02-13T09:11:37Z</time>
      </trkpt>
      <trkpt lat="43.73681" lon="3.51161">
        <ele>455.98</ele>
        <time>2023-02-13T09:11:55Z</time>
      </trkpt>
      <trkpt lat="43.7367" lon="3.51182">
        <ele>455.86</ele>
        <time>2023-02-13T09:12:13Z</time>
      </trkpt>
      <trkpt lat="43.73657" lon="3.51205">
        <ele>455.79</ele>
        <time>2023-02-13T09:12:31Z</time>
      </trkpt>
      <trkpt lat="43.73651" lon="3.51226">
        <ele>455.73</ele>
        <time>2023-02-13T09:12:46Z</time>
      </trkpt>
      <trkpt lat="43.73639" lon="3.51252">
        <ele>455.71</ele>
        <time>2023-02-13T09:13:04Z</time>
      </trkpt>
      <trkpt lat="43.73624" lon="3.51266">
        <ele>456.37</ele>
        <time>2023-02-13T09:13:19Z</time>
      </trkpt>
      <trkpt lat="43.7361" lon="3.51284">
        <ele>458.74</ele>
        <time>2023-02-13T09:13:36Z</time>
      </trkpt>
      <trkpt lat="43.736" lon="3.51304">
        <ele>460.62</ele>
        <time>2023-02-13T09:13:52Z</time>
      </trkpt>
      <trkpt lat="43.73596" lon="3.51324">
        <ele>462.31</ele>
        <time>2023-02-13T09:14:07Z</time>
      </trkpt>
      <trkpt lat="43.73598" lon="3.51346">
        <ele>464.83</ele>
        <time>2023-02-13T09:14:22Z</time>
      </trkpt>
      <trkpt lat="43.73601" lon="3.5137">
        <ele>467.34</ele>
        <time>2023-02-13T09:14:38Z</time>
      </trkpt>
      <trkpt lat="43.73602" lon="3.51386">
        <ele>469.2</ele>
        <time>2023-02-13T09:14:49Z</time>
      </trkpt>
      <trkpt lat="43.73597" lon="3.514">
        <ele>471.01</ele>
        <time>2023-02-13T09:15:01Z</time>
      </trkpt>
      <trkpt lat="43.73587" lon="3.51416">
        <ele>473.79</ele>
        <time>2023-02-13T09:15:17Z</time>
      </trkpt>
      <trkpt lat="43.73586" lon="3.51418">
        <ele>473.77</ele>
        <time>2023-02-13T09:15:19Z</time>
      </trkpt>
      <trkpt lat="43.73576" lon="3.51435">
        <ele>476.37</ele>
        <time>2023-02-13T09:15:36Z</time>
      </trkpt>
      <trkpt lat="43.73563" lon="3.51449">
        <ele>479.57</ele>
        <time>2023-02-13T09:15:54Z</time>
      </trkpt>
      <trkpt lat="43.73559" lon="3.51461">
        <ele>480.45</ele>
        <time>2023-02-13T09:16:04Z</time>
      </trkpt>
      <trkpt lat="43.73559" lon="3.51465">
        <ele>480.46</ele>
        <time>2023-02-13T09:16:06Z</time>
      </trkpt>
      <trkpt lat="43.73556" lon="3.51483">
        <ele>484.07</ele>
        <time>2023-02-13T09:16:19Z</time>
      </trkpt>
      <trkpt lat="43.73556" lon="3.51484">
        <ele>484.05</ele>
        <time>2023-02-13T09:16:20Z</time>
      </trkpt>
      <trkpt lat="43.73546" lon="3.515">
        <ele>484.77</ele>
        <time>2023-02-13T09:16:34Z</time>
      </trkpt>
      <trkpt lat="43.73542" lon="3.5151">
        <ele>485.56</ele>
        <time>2023-02-13T09:16:43Z</time>
      </trkpt>
      <trkpt lat="43.73536" lon="3.51527">
        <ele>487.11</ele>
        <time>2023-02-13T09:16:58Z</time>
      </trkpt>
      <trkpt lat="43.73532" lon="3.51535">
        <ele>487.92</ele>
        <time>2023-02-13T09:17:20Z</time>
      </trkpt>
      <trkpt lat="43.73525" lon="3.51554">
        <ele>489.56</ele>
        <time>2023-02-13T09:17:36Z</time>
      </trkpt>
      <trkpt lat="43.73517" lon="3.51573">
        <ele>492.01</ele>
        <time>2023-02-13T09:17:52Z</time>
      </trkpt>
      <trkpt lat="43.73506" lon="3.51589">
        <ele>495.16</ele>
        <time>2023-02-13T09:18:10Z</time>
      </trkpt>
      <trkpt lat="43.73502" lon="3.51595">
        <ele>495.92</ele>
        <time>2023-02-13T09:18:16Z</time>
      </trkpt>
      <trkpt lat="43.73494" lon="3.51609">
        <ele>496.66</ele>
        <time>2023-02-13T09:18:27Z</time>
      </trkpt>
      <trkpt lat="43.73495" lon="3.51626">
        <ele>496.59</ele>
        <time>2023-02-13T09:18:38Z</time>
      </trkpt>
      <trkpt lat="43.73503" lon="3.51644">
        <ele>499.16</ele>
        <time>2023-02-13T09:18:53Z</time>
      </trkpt>
      <trkpt lat="43.73514" lon="3.51652">
        <ele>500.69</ele>
        <time>2023-02-13T09:19:10Z</time>
      </trkpt>
      <trkpt lat="43.73521" lon="3.51671">
        <ele>502.42</ele>
        <time>2023-02-13T09:19:28Z</time>
      </trkpt>
      <trkpt lat="43.73525" lon="3.51693">
        <ele>504.98</ele>
        <time>2023-02-13T09:19:48Z</time>
      </trkpt>
      <trkpt lat="43.73526" lon="3.51697">
        <ele>504.98</ele>
        <time>2023-02-13T09:19:51Z</time>
      </trkpt>
      <trkpt lat="43.73531" lon="3.51717">
        <ele>506.59</ele>
        <time>2023-02-13T09:20:07Z</time>
      </trkpt>
      <trkpt lat="43.73533" lon="3.51734">
        <ele>508.02</ele>
        <time>2023-02-13T09:20:25Z</time>
      </trkpt>
      <trkpt lat="43.73534" lon="3.51744">
        <ele>508.82</ele>
        <time>2023-02-13T09:20:33Z</time>
      </trkpt>
      <trkpt lat="43.73532" lon="3.51767">
        <ele>510.34</ele>
        <time>2023-02-13T09:20:49Z</time>
      </trkpt>
      <trkpt lat="43.73532" lon="3.51772">
        <ele>511.16</ele>
        <time>2023-02-13T09:20:53Z</time>
      </trkpt>
      <trkpt lat="43.73535" lon="3.5178">
        <ele>511.1</ele>
        <time>2023-02-13T09:20:59Z</time>
      </trkpt>
      <trkpt lat="43.73538" lon="3.51782">
        <ele>511.07</ele>
        <time>2023-02-13T09:21:03Z</time>
      </trkpt>
      <trkpt lat="43.73551" lon="3.51776">
        <ele>512.92</ele>
        <time>2023-02-13T09:21:18Z</time>
      </trkpt>
      <trkpt lat="43.73555" lon="3.5177">
        <ele>512.89</ele>
        <time>2023-02-13T09:21:24Z</time>
      </trkpt>
      <trkpt lat="43.73567" lon="3.51751">
        <ele>514.33</ele>
        <time>2023-02-13T09:21:43Z</time>
      </trkpt>
      <trkpt lat="43.73574" lon="3.51756">
        <ele>515.5</ele>
        <time>2023-02-13T09:21:59Z</time>
      </trkpt>
      <trkpt lat="43.73574" lon="3.51754">
        <ele>515.36</ele>
        <time>2023-02-13T09:22:32Z</time>
      </trkpt>
      <trkpt lat="43.73574" lon="3.51753">
        <ele>515.25</ele>
        <time>2023-02-13T09:23:00Z</time>
      </trkpt>
      <trkpt lat="43.73574" lon="3.51756">
        <ele>515.2</ele>
        <time>2023-02-13T09:23:18Z</time>
      </trkpt>
      <trkpt lat="43.73572" lon="3.5176">
        <ele>515.1</ele>
        <time>2023-02-13T09:24:00Z</time>
      </trkpt>
      <trkpt lat="43.73571" lon="3.51761">
        <ele>515.09</ele>
        <time>2023-02-13T09:24:02Z</time>
      </trkpt>
      <trkpt lat="43.73569" lon="3.51765">
        <ele>515.08</ele>
        <time>2023-02-13T09:24:05Z</time>
      </trkpt>
      <trkpt lat="43.73563" lon="3.51788">
        <ele>515.04</ele>
        <time>2023-02-13T09:24:20Z</time>
      </trkpt>
      <trkpt lat="43.73563" lon="3.51791">
        <ele>515.04</ele>
        <time>2023-02-13T09:24:22Z</time>
      </trkpt>
      <trkpt lat="43.73562" lon="3.51797">
        <ele>512.73</ele>
        <time>2023-02-13T09:24:25Z</time>
      </trkpt>
      <trkpt lat="43.7356" lon="3.51807">
        <ele>510.86</ele>
        <time>2023-02-13T09:24:31Z</time>
      </trkpt>
      <trkpt lat="43.73557" lon="3.51836">
        <ele>510.91</ele>
        <time>2023-02-13T09:24:48Z</time>
      </trkpt>
      <trkpt lat="43.73557" lon="3.51839">
        <ele>510.91</ele>
        <time>2023-02-13T09:24:50Z</time>
      </trkpt>
      <trkpt lat="43.73555" lon="3.51848">
        <ele>513.19</ele>
        <time>2023-02-13T09:24:55Z</time>
      </trkpt>
      <trkpt lat="43.73552" lon="3.51878">
        <ele>514.1</ele>
        <time>2023-02-13T09:25:13Z</time>
      </trkpt>
      <trkpt lat="43.73543" lon="3.51913">
        <ele>514.89</ele>
        <time>2023-02-13T09:25:33Z</time>
      </trkpt>
      <trkpt lat="43.73538" lon="3.51941">
        <ele>516.99</ele>
        <time>2023-02-13T09:25:51Z</time>
      </trkpt>
      <trkpt lat="43.73533" lon="3.51976">
        <ele>518.67</ele>
        <time>2023-02-13T09:26:14Z</time>
      </trkpt>
      <trkpt lat="43.73529" lon="3.52007">
        <ele>521.33</ele>
        <time>2023-02-13T09:26:34Z</time>
      </trkpt>
      <trkpt lat="43.73527" lon="3.52021">
        <ele>523.73</ele>
        <time>2023-02-13T09:26:43Z</time>
      </trkpt>
      <trkpt lat="43.73524" lon="3.52035">
        <ele>524.57</ele>
        <time>2023-02-13T09:26:54Z</time>
      </trkpt>
      <trkpt lat="43.73512" lon="3.52055">
        <ele>525.34</ele>
        <time>2023-02-13T09:27:11Z</time>
      </trkpt>
      <trkpt lat="43.73512" lon="3.52078">
        <ele>527.97</ele>
        <time>2023-02-13T09:27:27Z</time>
      </trkpt>
      <trkpt lat="43.73515" lon="3.52101">
        <ele>529.62</ele>
        <time>2023-02-13T09:27:43Z</time>
      </trkpt>
      <trkpt lat="43.73516" lon="3.5211">
        <ele>529.63</ele>
        <time>2023-02-13T09:27:49Z</time>
      </trkpt>
      <trkpt lat="43.73523" lon="3.52133">
        <ele>532.24</ele>
        <time>2023-02-13T09:28:06Z</time>
      </trkpt>
      <trkpt lat="43.73535" lon="3.52153">
        <ele>533.83</ele>
        <time>2023-02-13T09:28:23Z</time>
      </trkpt>
      <trkpt lat="43.73543" lon="3.52175">
        <ele>535.42</ele>
        <time>2023-02-13T09:28:41Z</time>
      </trkpt>
      <trkpt lat="43.73542" lon="3.52182">
        <ele>536.49</ele>
        <time>2023-02-13T09:28:46Z</time>
      </trkpt>
      <trkpt lat="43.73525" lon="3.52194">
        <ele>537.24</ele>
        <time>2023-02-13T09:29:04Z</time>
      </trkpt>
      <trkpt lat="43.73509" lon="3.52206">
        <ele>538.88</ele>
        <time>2023-02-13T09:29:20Z</time>
      </trkpt>
      <trkpt lat="43.73497" lon="3.52224">
        <ele>540.57</ele>
        <time>2023-02-13T09:29:36Z</time>
      </trkpt>
      <trkpt lat="43.73492" lon="3.52248">
        <ele>543.01</ele>
        <time>2023-02-13T09:29:53Z</time>
      </trkpt>
      <trkpt lat="43.73485" lon="3.52272">
        <ele>544.7</ele>
        <time>2023-02-13T09:30:10Z</time>
      </trkpt>
      <trkpt lat="43.73484" lon="3.52274">
        <ele>545.54</ele>
        <time>2023-02-13T09:30:12Z</time>
      </trkpt>
      <trkpt lat="43.73472" lon="3.52295">
        <ele>546.28</ele>
        <time>2023-02-13T09:30:31Z</time>
      </trkpt>
      <trkpt lat="43.7346" lon="3.52315">
        <ele>548.97</ele>
        <time>2023-02-13T09:30:50Z</time>
      </trkpt>
      <trkpt lat="43.7346" lon="3.52316">
        <ele>548.99</ele>
        <time>2023-02-13T09:30:51Z</time>
      </trkpt>
      <trkpt lat="43.73449" lon="3.52334">
        <ele>550.54</ele>
        <time>2023-02-13T09:31:07Z</time>
      </trkpt>
      <trkpt lat="43.73439" lon="3.5235">
        <ele>552.12</ele>
        <time>2023-02-13T09:31:22Z</time>
      </trkpt>
      <trkpt lat="43.73425" lon="3.5237">
        <ele>553.75</ele>
        <time>2023-02-13T09:31:40Z</time>
      </trkpt>
      <trkpt lat="43.73411" lon="3.52389">
        <ele>554.56</ele>
        <time>2023-02-13T09:31:57Z</time>
      </trkpt>
      <trkpt lat="43.73395" lon="3.52406">
        <ele>555.34</ele>
        <time>2023-02-13T09:32:15Z</time>
      </trkpt>
      <trkpt lat="43.73392" lon="3.5241">
        <ele>555.31</ele>
        <time>2023-02-13T09:32:30Z</time>
      </trkpt>
      <trkpt lat="43.73393" lon="3.52409">
        <ele>555.25</ele>
        <time>2023-02-13T09:33:07Z</time>
      </trkpt>
      <trkpt lat="43.73393" lon="3.52411">
        <ele>555.21</ele>
        <time>2023-02-13T09:33:26Z</time>
      </trkpt>
      <trkpt lat="43.73394" lon="3.52413">
        <ele>555.14</ele>
        <time>2023-02-13T09:34:05Z</time>
      </trkpt>
      <trkpt lat="43.73391" lon="3.52413">
        <ele>555.89</ele>
        <time>2023-02-13T09:34:45Z</time>
      </trkpt>
      <trkpt lat="43.73388" lon="3.52416">
        <ele>555.87</ele>
        <time>2023-02-13T09:35:00Z</time>
      </trkpt>
      <trkpt lat="43.73383" lon="3.5242">
        <ele>555.85</ele>
        <time>2023-02-13T09:35:13Z</time>
      </trkpt>
      <trkpt lat="43.73371" lon="3.52437">
        <ele>555.82</ele>
        <time>2023-02-13T09:35:28Z</time>
      </trkpt>
      <trkpt lat="43.73369" lon="3.52439">
        <ele>553.52</ele>
        <time>2023-02-13T09:35:30Z</time>
      </trkpt>
      <trkpt lat="43.73356" lon="3.5246">
        <ele>552.73</ele>
        <time>2023-02-13T09:35:46Z</time>
      </trkpt>
      <trkpt lat="43.73348" lon="3.5247">
        <ele>552.72</ele>
        <time>2023-02-13T09:35:54Z</time>
      </trkpt>
      <trkpt lat="43.73342" lon="3.52478">
        <ele>552.72</ele>
        <time>2023-02-13T09:36:00Z</time>
      </trkpt>
      <trkpt lat="43.73328" lon="3.525">
        <ele>551.85</ele>
        <time>2023-02-13T09:36:16Z</time>
      </trkpt>
      <trkpt lat="43.73315" lon="3.52517">
        <ele>550.07</ele>
        <time>2023-02-13T09:36:31Z</time>
      </trkpt>
      <trkpt lat="43.73314" lon="3.52517">
        <ele>550.06</ele>
        <time>2023-02-13T09:36:34Z</time>
      </trkpt>
      <trkpt lat="43.73309" lon="3.52525">
        <ele>549.24</ele>
        <time>2023-02-13T09:36:40Z</time>
      </trkpt>
      <trkpt lat="43.73303" lon="3.52541">
        <ele>548.41</ele>
        <time>2023-02-13T09:36:50Z</time>
      </trkpt>
      <trkpt lat="43.73302" lon="3.52549">
        <ele>547.54</ele>
        <time>2023-02-13T09:36:56Z</time>
      </trkpt>
      <trkpt lat="43.73295" lon="3.52575">
        <ele>546.74</ele>
        <time>2023-02-13T09:37:11Z</time>
      </trkpt>
      <trkpt lat="43.73288" lon="3.52598">
        <ele>545.94</ele>
        <time>2023-02-13T09:37:24Z</time>
      </trkpt>
      <trkpt lat="43.73285" lon="3.52608">
        <ele>545</ele>
        <time>2023-02-13T09:37:30Z</time>
      </trkpt>
      <trkpt lat="43.73282" lon="3.52617">
        <ele>544.99</ele>
        <time>2023-02-13T09:37:35Z</time>
      </trkpt>
      <trkpt lat="43.73273" lon="3.52655">
        <ele>543.43</ele>
        <time>2023-02-13T09:37:58Z</time>
      </trkpt>
      <trkpt lat="43.73265" lon="3.52682">
        <ele>541.74</ele>
        <time>2023-02-13T09:38:15Z</time>
      </trkpt>
      <trkpt lat="43.73259" lon="3.5271">
        <ele>539.31</ele>
        <time>2023-02-13T09:38:32Z</time>
      </trkpt>
      <trkpt lat="43.73259" lon="3.52712">
        <ele>539.28</ele>
        <time>2023-02-13T09:38:33Z</time>
      </trkpt>
      <trkpt lat="43.7327" lon="3.52727">
        <ele>538.56</ele>
        <time>2023-02-13T09:38:49Z</time>
      </trkpt>
      <trkpt lat="43.73293" lon="3.52727">
        <ele>537.81</ele>
        <time>2023-02-13T09:39:09Z</time>
      </trkpt>
      <trkpt lat="43.73316" lon="3.52735">
        <ele>535.19</ele>
        <time>2023-02-13T09:39:29Z</time>
      </trkpt>
      <trkpt lat="43.73344" lon="3.52747">
        <ele>532.74</ele>
        <time>2023-02-13T09:39:52Z</time>
      </trkpt>
      <trkpt lat="43.73368" lon="3.52756">
        <ele>532.76</ele>
        <time>2023-02-13T09:40:13Z</time>
      </trkpt>
      <trkpt lat="43.73389" lon="3.52764">
        <ele>532.77</ele>
        <time>2023-02-13T09:40:33Z</time>
      </trkpt>
      <trkpt lat="43.7339" lon="3.52764">
        <ele>536.83</ele>
        <time>2023-02-13T09:40:39Z</time>
      </trkpt>
      <trkpt lat="43.7339" lon="3.52764">
        <ele>536.83</ele>
        <time>2023-02-13T09:40:40Z</time>
      </trkpt>
      <trkpt lat="43.73395" lon="3.52766">
        <ele>534.42</ele>
        <time>2023-02-13T09:40:55Z</time>
      </trkpt>
      <trkpt lat="43.73416" lon="3.52774">
        <ele>534.44</ele>
        <time>2023-02-13T09:41:14Z</time>
      </trkpt>
      <trkpt lat="43.73424" lon="3.52778">
        <ele>536.76</ele>
        <time>2023-02-13T09:41:22Z</time>
      </trkpt>
      <trkpt lat="43.73447" lon="3.52786">
        <ele>537.58</ele>
        <time>2023-02-13T09:41:42Z</time>
      </trkpt>
      <trkpt lat="43.73471" lon="3.52795">
        <ele>539.27</ele>
        <time>2023-02-13T09:42:03Z</time>
      </trkpt>
      <trkpt lat="43.73497" lon="3.52807">
        <ele>539.23</ele>
        <time>2023-02-13T09:42:26Z</time>
      </trkpt>
      <trkpt lat="43.73505" lon="3.52811">
        <ele>539.22</ele>
        <time>2023-02-13T09:42:33Z</time>
      </trkpt>
      <trkpt lat="43.7351" lon="3.52836">
        <ele>536.93</ele>
        <time>2023-02-13T09:42:50Z</time>
      </trkpt>
      <trkpt lat="43.73513" lon="3.52857">
        <ele>534.32</ele>
        <time>2023-02-13T09:43:06Z</time>
      </trkpt>
      <trkpt lat="43.73513" lon="3.52868">
        <ele>531.46</ele>
        <time>2023-02-13T09:43:21Z</time>
      </trkpt>
      <trkpt lat="43.73513" lon="3.52871">
        <ele>530.68</ele>
        <time>2023-02-13T09:43:26Z</time>
      </trkpt>
      <trkpt lat="43.73514" lon="3.52881">
        <ele>528.97</ele>
        <time>2023-02-13T09:43:42Z</time>
      </trkpt>
      <trkpt lat="43.73514" lon="3.52885">
        <ele>528.24</ele>
        <time>2023-02-13T09:44:10Z</time>
      </trkpt>
      <trkpt lat="43.73513" lon="3.52884">
        <ele>527.52</ele>
        <time>2023-02-13T09:44:49Z</time>
      </trkpt>
      <trkpt lat="43.73508" lon="3.52885">
        <ele>527.53</ele>
        <time>2023-02-13T09:45:06Z</time>
      </trkpt>
      <trkpt lat="43.73497" lon="3.52886">
        <ele>527.53</ele>
        <time>2023-02-13T09:45:20Z</time>
      </trkpt>
      <trkpt lat="43.73491" lon="3.52888">
        <ele>525.71</ele>
        <time>2023-02-13T09:45:30Z</time>
      </trkpt>
      <trkpt lat="43.73485" lon="3.52891">
        <ele>525.69</ele>
        <time>2023-02-13T09:45:36Z</time>
      </trkpt>
      <trkpt lat="43.73476" lon="3.52898">
        <ele>524.92</ele>
        <time>2023-02-13T09:45:45Z</time>
      </trkpt>
      <trkpt lat="43.73466" lon="3.52907">
        <ele>524.07</ele>
        <time>2023-02-13T09:45:55Z</time>
      </trkpt>
      <trkpt lat="43.73456" lon="3.52925">
        <ele>521.48</ele>
        <time>2023-02-13T09:46:10Z</time>
      </trkpt>
      <trkpt lat="43.73444" lon="3.52937">
        <ele>519.62</ele>
        <time>2023-02-13T09:46:24Z</time>
      </trkpt>
      <trkpt lat="43.73438" lon="3.52941">
        <ele>519.61</ele>
        <time>2023-02-13T09:46:30Z</time>
      </trkpt>
      <trkpt lat="43.73435" lon="3.52945">
        <ele>519.61</ele>
        <time>2023-02-13T09:46:34Z</time>
      </trkpt>
      <trkpt lat="43.73428" lon="3.52959">
        <ele>516.21</ele>
        <time>2023-02-13T09:46:47Z</time>
      </trkpt>
      <trkpt lat="43.73426" lon="3.52963">
        <ele>516.2</ele>
        <time>2023-02-13T09:46:51Z</time>
      </trkpt>
      <trkpt lat="43.73426" lon="3.52972">
        <ele>513.91</ele>
        <time>2023-02-13T09:46:57Z</time>
      </trkpt>
      <trkpt lat="43.73426" lon="3.52973">
        <ele>514.01</ele>
        <time>2023-02-13T09:46:58Z</time>
      </trkpt>
      <trkpt lat="43.73426" lon="3.52997">
        <ele>511.48</ele>
        <time>2023-02-13T09:47:16Z</time>
      </trkpt>
      <trkpt lat="43.73429" lon="3.53009">
        <ele>511.52</ele>
        <time>2023-02-13T09:47:30Z</time>
      </trkpt>
      <trkpt lat="43.73432" lon="3.53011">
        <ele>511.48</ele>
        <time>2023-02-13T09:47:34Z</time>
      </trkpt>
      <trkpt lat="43.73437" lon="3.53019">
        <ele>513.74</ele>
        <time>2023-02-13T09:47:45Z</time>
      </trkpt>
      <trkpt lat="43.73437" lon="3.5302">
        <ele>513.74</ele>
        <time>2023-02-13T09:48:10Z</time>
      </trkpt>
      <trkpt lat="43.73437" lon="3.53021">
        <ele>513.74</ele>
        <time>2023-02-13T09:48:24Z</time>
      </trkpt>
      <trkpt lat="43.73437" lon="3.53021">
        <ele>513.75</ele>
        <time>2023-02-13T09:49:03Z</time>
      </trkpt>
      <trkpt lat="43.73432" lon="3.53021">
        <ele>513.76</ele>
        <time>2023-02-13T09:49:28Z</time>
      </trkpt>
      <trkpt lat="43.73426" lon="3.53019">
        <ele>511.52</ele>
        <time>2023-02-13T09:49:46Z</time>
      </trkpt>
      <trkpt lat="43.73422" lon="3.53012">
        <ele>510.63</ele>
        <time>2023-02-13T09:49:56Z</time>
      </trkpt>
      <trkpt lat="43.73412" lon="3.52994">
        <ele>508.99</ele>
        <time>2023-02-13T09:50:12Z</time>
      </trkpt>
      <trkpt lat="43.73409" lon="3.52991">
        <ele>509.01</ele>
        <time>2023-02-13T09:50:16Z</time>
      </trkpt>
      <trkpt lat="43.73397" lon="3.52978">
        <ele>507.35</ele>
        <time>2023-02-13T09:50:30Z</time>
      </trkpt>
      <trkpt lat="43.73385" lon="3.52961">
        <ele>505.79</ele>
        <time>2023-02-13T09:50:48Z</time>
      </trkpt>
      <trkpt lat="43.73377" lon="3.52961">
        <ele>502.72</ele>
        <time>2023-02-13T09:50:59Z</time>
      </trkpt>
      <trkpt lat="43.73376" lon="3.52969">
        <ele>501.73</ele>
        <time>2023-02-13T09:51:08Z</time>
      </trkpt>
      <trkpt lat="43.73376" lon="3.52974">
        <ele>500.78</ele>
        <time>2023-02-13T09:51:12Z</time>
      </trkpt>
      <trkpt lat="43.73378" lon="3.52994">
        <ele>498.53</ele>
        <time>2023-02-13T09:51:29Z</time>
      </trkpt>
      <trkpt lat="43.73384" lon="3.53013">
        <ele>496</ele>
        <time>2023-02-13T09:51:47Z</time>
      </trkpt>
      <trkpt lat="43.73387" lon="3.53023">
        <ele>494.13</ele>
        <time>2023-02-13T09:52:00Z</time>
      </trkpt>
      <trkpt lat="43.73382" lon="3.53023">
        <ele>493.25</ele>
        <time>2023-02-13T09:52:04Z</time>
      </trkpt>
      <trkpt lat="43.73367" lon="3.5302">
        <ele>491.37</ele>
        <time>2023-02-13T09:52:20Z</time>
      </trkpt>
      <trkpt lat="43.73352" lon="3.53011">
        <ele>489.74</ele>
        <time>2023-02-13T09:52:34Z</time>
      </trkpt>
      <trkpt lat="43.73336" lon="3.53008">
        <ele>486.92</ele>
        <time>2023-02-13T09:52:50Z</time>
      </trkpt>
      <trkpt lat="43.73335" lon="3.53008">
        <ele>487.05</ele>
        <time>2023-02-13T09:52:51Z</time>
      </trkpt>
      <trkpt lat="43.73327" lon="3.53004">
        <ele>485.31</ele>
        <time>2023-02-13T09:53:07Z</time>
      </trkpt>
      <trkpt lat="43.73326" lon="3.53002">
        <ele>485.13</ele>
        <time>2023-02-13T09:53:33Z</time>
      </trkpt>
      <trkpt lat="43.7332" lon="3.53004">
        <ele>484.99</ele>
        <time>2023-02-13T09:53:53Z</time>
      </trkpt>
      <trkpt lat="43.73322" lon="3.53008">
        <ele>484.98</ele>
        <time>2023-02-13T09:53:57Z</time>
      </trkpt>
      <trkpt lat="43.73327" lon="3.53015">
        <ele>480.12</ele>
        <time>2023-02-13T09:54:07Z</time>
      </trkpt>
      <trkpt lat="43.73327" lon="3.53016">
        <ele>484.56</ele>
        <time>2023-02-13T09:54:08Z</time>
      </trkpt>
      <trkpt lat="43.73342" lon="3.53037">
        <ele>484.46</ele>
        <time>2023-02-13T09:54:30Z</time>
      </trkpt>
      <trkpt lat="43.73356" lon="3.53052">
        <ele>482.17</ele>
        <time>2023-02-13T09:54:43Z</time>
      </trkpt>
      <trkpt lat="43.73369" lon="3.53072">
        <ele>482.12</ele>
        <time>2023-02-13T09:55:00Z</time>
      </trkpt>
      <trkpt lat="43.7338" lon="3.53087">
        <ele>481.25</ele>
        <time>2023-02-13T09:55:14Z</time>
      </trkpt>
      <trkpt lat="43.73382" lon="3.5309">
        <ele>481.27</ele>
        <time>2023-02-13T09:55:16Z</time>
      </trkpt>
      <trkpt lat="43.73393" lon="3.53111">
        <ele>479.61</ele>
        <time>2023-02-13T09:55:31Z</time>
      </trkpt>
      <trkpt lat="43.73395" lon="3.53121">
        <ele>479.53</ele>
        <time>2023-02-13T09:55:46Z</time>
      </trkpt>
      <trkpt lat="43.73403" lon="3.53139">
        <ele>479.42</ele>
        <time>2023-02-13T09:56:04Z</time>
      </trkpt>
      <trkpt lat="43.73406" lon="3.53151">
        <ele>478.59</ele>
        <time>2023-02-13T09:56:13Z</time>
      </trkpt>
      <trkpt lat="43.73404" lon="3.53173">
        <ele>478.48</ele>
        <time>2023-02-13T09:56:28Z</time>
      </trkpt>
      <trkpt lat="43.73399" lon="3.53188">
        <ele>477.42</ele>
        <time>2023-02-13T09:56:47Z</time>
      </trkpt>
      <trkpt lat="43.73398" lon="3.53192">
        <ele>477.38</ele>
        <time>2023-02-13T09:56:56Z</time>
      </trkpt>
      <trkpt lat="43.73392" lon="3.532">
        <ele>476.53</ele>
        <time>2023-02-13T09:57:11Z</time>
      </trkpt>
      <trkpt lat="43.73382" lon="3.53214">
        <ele>476.5</ele>
        <time>2023-02-13T09:57:32Z</time>
      </trkpt>
      <trkpt lat="43.7338" lon="3.53218">
        <ele>476.5</ele>
        <time>2023-02-13T09:57:35Z</time>
      </trkpt>
      <trkpt lat="43.73366" lon="3.53239">
        <ele>475.68</ele>
        <time>2023-02-13T09:57:53Z</time>
      </trkpt>
      <trkpt lat="43.7335" lon="3.53254">
        <ele>474.76</ele>
        <time>2023-02-13T09:58:10Z</time>
      </trkpt>
      <trkpt lat="43.73339" lon="3.5327">
        <ele>473.96</ele>
        <time>2023-02-13T09:58:24Z</time>
      </trkpt>
      <trkpt lat="43.7334" lon="3.53285">
        <ele>473.23</ele>
        <time>2023-02-13T09:58:37Z</time>
      </trkpt>
      <trkpt lat="43.73354" lon="3.53307">
        <ele>472.54</ele>
        <time>2023-02-13T09:58:55Z</time>
      </trkpt>
      <trkpt lat="43.73356" lon="3.53311">
        <ele>472.57</ele>
        <time>2023-02-13T09:58:59Z</time>
      </trkpt>
      <trkpt lat="43.7336" lon="3.53319">
        <ele>471.77</ele>
        <time>2023-02-13T09:59:05Z</time>
      </trkpt>
      <trkpt lat="43.7337" lon="3.5334">
        <ele>471.79</ele>
        <time>2023-02-13T09:59:20Z</time>
      </trkpt>
      <trkpt lat="43.73376" lon="3.53372">
        <ele>470.88</ele>
        <time>2023-02-13T09:59:38Z</time>
      </trkpt>
      <trkpt lat="43.73372" lon="3.53398">
        <ele>466.47</ele>
        <time>2023-02-13T09:59:53Z</time>
      </trkpt>
      <trkpt lat="43.7337" lon="3.53404">
        <ele>471.69</ele>
        <time>2023-02-13T09:59:57Z</time>
      </trkpt>
      <trkpt lat="43.7337" lon="3.53406">
        <ele>471.68</ele>
        <time>2023-02-13T09:59:58Z</time>
      </trkpt>
      <trkpt lat="43.73368" lon="3.53413">
        <ele>469.31</ele>
        <time>2023-02-13T10:00:02Z</time>
      </trkpt>
      <trkpt lat="43.73358" lon="3.53442">
        <ele>468.53</ele>
        <time>2023-02-13T10:00:20Z</time>
      </trkpt>
      <trkpt lat="43.73348" lon="3.53467">
        <ele>467.77</ele>
        <time>2023-02-13T10:00:38Z</time>
      </trkpt>
      <trkpt lat="43.73346" lon="3.53472">
        <ele>467.76</ele>
        <time>2023-02-13T10:00:41Z</time>
      </trkpt>
      <trkpt lat="43.73342" lon="3.53489">
        <ele>466.94</ele>
        <time>2023-02-13T10:00:53Z</time>
      </trkpt>
      <trkpt lat="43.73336" lon="3.53504">
        <ele>465.36</ele>
        <time>2023-02-13T10:01:09Z</time>
      </trkpt>
      <trkpt lat="43.7334" lon="3.53502">
        <ele>464.31</ele>
        <time>2023-02-13T10:01:25Z</time>
      </trkpt>
      <trkpt lat="43.73344" lon="3.535">
        <ele>463.41</ele>
        <time>2023-02-13T10:01:29Z</time>
      </trkpt>
      <trkpt lat="43.73357" lon="3.53496">
        <ele>461.75</ele>
        <time>2023-02-13T10:01:45Z</time>
      </trkpt>
      <trkpt lat="43.73361" lon="3.53497">
        <ele>460.69</ele>
        <time>2023-02-13T10:01:49Z</time>
      </trkpt>
      <trkpt lat="43.73363" lon="3.53498">
        <ele>459.75</ele>
        <time>2023-02-13T10:01:51Z</time>
      </trkpt>
      <trkpt lat="43.73381" lon="3.53501">
        <ele>457.24</ele>
        <time>2023-02-13T10:02:08Z</time>
      </trkpt>
      <trkpt lat="43.73395" lon="3.53505">
        <ele>453.84</ele>
        <time>2023-02-13T10:02:21Z</time>
      </trkpt>
      <trkpt lat="43.73409" lon="3.53512">
        <ele>452.02</ele>
        <time>2023-02-13T10:02:36Z</time>
      </trkpt>
      <trkpt lat="43.73412" lon="3.53519">
        <ele>450.21</ele>
        <time>2023-02-13T10:02:50Z</time>
      </trkpt>
      <trkpt lat="43.73395" lon="3.53518">
        <ele>446.6</ele>
        <time>2023-02-13T10:03:05Z</time>
      </trkpt>
      <trkpt lat="43.73393" lon="3.53518">
        <ele>446.62</ele>
        <time>2023-02-13T10:03:07Z</time>
      </trkpt>
      <trkpt lat="43.73387" lon="3.53517">
        <ele>445.67</ele>
        <time>2023-02-13T10:03:12Z</time>
      </trkpt>
      <trkpt lat="43.73369" lon="3.53525">
        <ele>443.08</ele>
        <time>2023-02-13T10:03:28Z</time>
      </trkpt>
      <trkpt lat="43.73362" lon="3.53531">
        <ele>440.5</ele>
        <time>2023-02-13T10:03:44Z</time>
      </trkpt>
      <trkpt lat="43.73376" lon="3.53535">
        <ele>438.03</ele>
        <time>2023-02-13T10:03:59Z</time>
      </trkpt>
      <trkpt lat="43.73392" lon="3.53536">
        <ele>436.05</ele>
        <time>2023-02-13T10:04:15Z</time>
      </trkpt>
      <trkpt lat="43.73392" lon="3.53538">
        <ele>435.16</ele>
        <time>2023-02-13T10:04:18Z</time>
      </trkpt>
      <trkpt lat="43.73378" lon="3.53545">
        <ele>432.33</ele>
        <time>2023-02-13T10:04:33Z</time>
      </trkpt>
      <trkpt lat="43.73362" lon="3.53553">
        <ele>429.54</ele>
        <time>2023-02-13T10:04:48Z</time>
      </trkpt>
      <trkpt lat="43.73352" lon="3.53559">
        <ele>426.5</ele>
        <time>2023-02-13T10:04:58Z</time>
      </trkpt>
      <trkpt lat="43.73339" lon="3.53573">
        <ele>423.27</ele>
        <time>2023-02-13T10:05:15Z</time>
      </trkpt>
      <trkpt lat="43.73329" lon="3.53591">
        <ele>420.52</ele>
        <time>2023-02-13T10:05:32Z</time>
      </trkpt>
      <trkpt lat="43.73325" lon="3.53606">
        <ele>415.89</ele>
        <time>2023-02-13T10:05:45Z</time>
      </trkpt>
      <trkpt lat="43.73335" lon="3.53594">
        <ele>415.95</ele>
        <time>2023-02-13T10:06:03Z</time>
      </trkpt>
      <trkpt lat="43.7335" lon="3.53591">
        <ele>412.43</ele>
        <time>2023-02-13T10:06:19Z</time>
      </trkpt>
      <trkpt lat="43.7337" lon="3.53594">
        <ele>410.01</ele>
        <time>2023-02-13T10:06:35Z</time>
      </trkpt>
      <trkpt lat="43.73386" lon="3.53595">
        <ele>407.32</ele>
        <time>2023-02-13T10:06:49Z</time>
      </trkpt>
      <trkpt lat="43.73405" lon="3.53601">
        <ele>403.83</ele>
        <time>2023-02-13T10:07:04Z</time>
      </trkpt>
      <trkpt lat="43.7341" lon="3.53603">
        <ele>402.97</ele>
        <time>2023-02-13T10:07:08Z</time>
      </trkpt>
      <trkpt lat="43.73421" lon="3.53609">
        <ele>401.2</ele>
        <time>2023-02-13T10:07:18Z</time>
      </trkpt>
      <trkpt lat="43.73427" lon="3.53616">
        <ele>400.32</ele>
        <time>2023-02-13T10:07:25Z</time>
      </trkpt>
      <trkpt lat="43.7343" lon="3.53616">
        <ele>399.15</ele>
        <time>2023-02-13T10:07:27Z</time>
      </trkpt>
      <trkpt lat="43.73437" lon="3.53622">
        <ele>397.6</ele>
        <time>2023-02-13T10:07:36Z</time>
      </trkpt>
      <trkpt lat="43.73446" lon="3.53634">
        <ele>395.91</ele>
        <time>2023-02-13T10:07:47Z</time>
      </trkpt>
      <trkpt lat="43.73459" lon="3.5365">
        <ele>393.23</ele>
        <time>2023-02-13T10:08:02Z</time>
      </trkpt>
      <trkpt lat="43.73473" lon="3.53664">
        <ele>390.37</ele>
        <time>2023-02-13T10:08:18Z</time>
      </trkpt>
      <trkpt lat="43.73477" lon="3.53668">
        <ele>389.15</ele>
        <time>2023-02-13T10:08:24Z</time>
      </trkpt>
      <trkpt lat="43.73478" lon="3.53669">
        <ele>389.15</ele>
        <time>2023-02-13T10:08:25Z</time>
      </trkpt>
      <trkpt lat="43.73494" lon="3.53684">
        <ele>385.55</ele>
        <time>2023-02-13T10:08:43Z</time>
      </trkpt>
      <trkpt lat="43.7351" lon="3.53696">
        <ele>382.91</ele>
        <time>2023-02-13T10:08:59Z</time>
      </trkpt>
      <trkpt lat="43.73512" lon="3.53698">
        <ele>382.91</ele>
        <time>2023-02-13T10:09:01Z</time>
      </trkpt>
      <trkpt lat="43.7352" lon="3.53703">
        <ele>381.27</ele>
        <time>2023-02-13T10:09:09Z</time>
      </trkpt>
      <trkpt lat="43.73532" lon="3.53708">
        <ele>379.55</ele>
        <time>2023-02-13T10:09:21Z</time>
      </trkpt>
      <trkpt lat="43.73546" lon="3.53718">
        <ele>376.42</ele>
        <time>2023-02-13T10:09:35Z</time>
      </trkpt>
      <trkpt lat="43.7355" lon="3.5372">
        <ele>376.44</ele>
        <time>2023-02-13T10:09:39Z</time>
      </trkpt>
      <trkpt lat="43.73555" lon="3.53714">
        <ele>375.7</ele>
        <time>2023-02-13T10:09:53Z</time>
      </trkpt>
      <trkpt lat="43.73556" lon="3.53714">
        <ele>375.77</ele>
        <time>2023-02-13T10:10:17Z</time>
      </trkpt>
      <trkpt lat="43.73556" lon="3.53714">
        <ele>375.84</ele>
        <time>2023-02-13T10:10:47Z</time>
      </trkpt>
      <trkpt lat="43.73555" lon="3.53715">
        <ele>375.93</ele>
        <time>2023-02-13T10:11:25Z</time>
      </trkpt>
      <trkpt lat="43.73552" lon="3.53719">
        <ele>375.92</ele>
        <time>2023-02-13T10:11:30Z</time>
      </trkpt>
      <trkpt lat="43.73561" lon="3.53736">
        <ele>373.99</ele>
        <time>2023-02-13T10:11:45Z</time>
      </trkpt>
      <trkpt lat="43.73576" lon="3.53748">
        <ele>371.42</ele>
        <time>2023-02-13T10:12:01Z</time>
      </trkpt>
      <trkpt lat="43.73589" lon="3.53749">
        <ele>370.68</ele>
        <time>2023-02-13T10:12:17Z</time>
      </trkpt>
      <trkpt lat="43.73597" lon="3.53748">
        <ele>369.11</ele>
        <time>2023-02-13T10:12:32Z</time>
      </trkpt>
      <trkpt lat="43.73596" lon="3.53749">
        <ele>368.37</ele>
        <time>2023-02-13T10:13:00Z</time>
      </trkpt>
      <trkpt lat="43.73595" lon="3.53748">
        <ele>367.61</ele>
        <time>2023-02-13T10:13:26Z</time>
      </trkpt>
      <trkpt lat="43.73592" lon="3.53747">
        <ele>367.67</ele>
        <time>2023-02-13T10:13:58Z</time>
      </trkpt>
      <trkpt lat="43.73586" lon="3.53749">
        <ele>370.21</ele>
        <time>2023-02-13T10:14:11Z</time>
      </trkpt>
      <trkpt lat="43.73587" lon="3.53749">
        <ele>370.18</ele>
        <time>2023-02-13T10:14:34Z</time>
      </trkpt>
      <trkpt lat="43.73586" lon="3.5375">
        <ele>370.19</ele>
        <time>2023-02-13T10:14:43Z</time>
      </trkpt>
      <trkpt lat="43.73578" lon="3.53756">
        <ele>370.22</ele>
        <time>2023-02-13T10:14:57Z</time>
      </trkpt>
      <trkpt lat="43.73573" lon="3.53758">
        <ele>367.74</ele>
        <time>2023-02-13T10:15:06Z</time>
      </trkpt>
      <trkpt lat="43.73567" lon="3.53757">
        <ele>366.85</ele>
        <time>2023-02-13T10:15:13Z</time>
      </trkpt>
      <trkpt lat="43.73554" lon="3.53756">
        <ele>364.2</ele>
        <time>2023-02-13T10:15:27Z</time>
      </trkpt>
      <trkpt lat="43.73538" lon="3.53751">
        <ele>362.62</ele>
        <time>2023-02-13T10:15:42Z</time>
      </trkpt>
      <trkpt lat="43.73522" lon="3.53751">
        <ele>359.99</ele>
        <time>2023-02-13T10:15:57Z</time>
      </trkpt>
      <trkpt lat="43.73506" lon="3.53751">
        <ele>357.27</ele>
        <time>2023-02-13T10:16:14Z</time>
      </trkpt>
      <trkpt lat="43.73493" lon="3.53747">
        <ele>353.6</ele>
        <time>2023-02-13T10:16:28Z</time>
      </trkpt>
      <trkpt lat="43.73477" lon="3.53741">
        <ele>351.83</ele>
        <time>2023-02-13T10:16:45Z</time>
      </trkpt>
      <trkpt lat="43.73459" lon="3.53736">
        <ele>349.48</ele>
        <time>2023-02-13T10:17:02Z</time>
      </trkpt>
      <trkpt lat="43.73451" lon="3.53735">
        <ele>348.61</ele>
        <time>2023-02-13T10:17:09Z</time>
      </trkpt>
      <trkpt lat="43.73445" lon="3.53733">
        <ele>347.85</ele>
        <time>2023-02-13T10:17:14Z</time>
      </trkpt>
      <trkpt lat="43.73431" lon="3.53732">
        <ele>345.16</ele>
        <time>2023-02-13T10:17:28Z</time>
      </trkpt>
      <trkpt lat="43.73414" lon="3.53732">
        <ele>342.52</ele>
        <time>2023-02-13T10:17:43Z</time>
      </trkpt>
      <trkpt lat="43.73406" lon="3.53738">
        <ele>341.58</ele>
        <time>2023-02-13T10:17:59Z</time>
      </trkpt>
      <trkpt lat="43.73395" lon="3.53743">
        <ele>339.66</ele>
        <time>2023-02-13T10:18:25Z</time>
      </trkpt>
      <trkpt lat="43.7338" lon="3.53753">
        <ele>337.73</ele>
        <time>2023-02-13T10:18:39Z</time>
      </trkpt>
      <trkpt lat="43.73369" lon="3.53764">
        <ele>335.28</ele>
        <time>2023-02-13T10:18:52Z</time>
      </trkpt>
      <trkpt lat="43.73358" lon="3.5378">
        <ele>332.8</ele>
        <time>2023-02-13T10:19:11Z</time>
      </trkpt>
      <trkpt lat="43.73357" lon="3.53782">
        <ele>332.78</ele>
        <time>2023-02-13T10:19:12Z</time>
      </trkpt>
      <trkpt lat="43.73349" lon="3.53803">
        <ele>330.06</ele>
        <time>2023-02-13T10:19:28Z</time>
      </trkpt>
      <trkpt lat="43.7335" lon="3.53808">
        <ele>329.24</ele>
        <time>2023-02-13T10:19:31Z</time>
      </trkpt>
      <trkpt lat="43.73351" lon="3.53812">
        <ele>328.29</ele>
        <time>2023-02-13T10:19:34Z</time>
      </trkpt>
      <trkpt lat="43.73347" lon="3.53832">
        <ele>325.63</ele>
        <time>2023-02-13T10:19:48Z</time>
      </trkpt>
      <trkpt lat="43.73343" lon="3.53854">
        <ele>323.17</ele>
        <time>2023-02-13T10:20:02Z</time>
      </trkpt>
      <trkpt lat="43.73342" lon="3.53875">
        <ele>321.35</ele>
        <time>2023-02-13T10:20:15Z</time>
      </trkpt>
      <trkpt lat="43.73343" lon="3.53879">
        <ele>320.48</ele>
        <time>2023-02-13T10:20:17Z</time>
      </trkpt>
      <trkpt lat="43.73345" lon="3.53901">
        <ele>318.03</ele>
        <time>2023-02-13T10:20:31Z</time>
      </trkpt>
      <trkpt lat="43.73347" lon="3.5392">
        <ele>315.03</ele>
        <time>2023-02-13T10:20:44Z</time>
      </trkpt>
      <trkpt lat="43.73349" lon="3.53935">
        <ele>311.57</ele>
        <time>2023-02-13T10:20:59Z</time>
      </trkpt>
      <trkpt lat="43.73349" lon="3.53936">
        <ele>309.24</ele>
        <time>2023-02-13T10:21:03Z</time>
      </trkpt>
      <trkpt lat="43.73349" lon="3.53937">
        <ele>311.61</ele>
        <time>2023-02-13T10:21:05Z</time>
      </trkpt>
      <trkpt lat="43.73348" lon="3.53937">
        <ele>312.96</ele>
        <time>2023-02-13T10:21:09Z</time>
      </trkpt>
      <trkpt lat="43.73346" lon="3.53938">
        <ele>312.94</ele>
        <time>2023-02-13T10:21:25Z</time>
      </trkpt>
      <trkpt lat="43.73348" lon="3.53937">
        <ele>310.18</ele>
        <time>2023-02-13T10:21:37Z</time>
      </trkpt>
      <trkpt lat="43.73356" lon="3.53913">
        <ele>308.05</ele>
        <time>2023-02-13T10:21:58Z</time>
      </trkpt>
      <trkpt lat="43.73358" lon="3.53907">
        <ele>309.59</ele>
        <time>2023-02-13T10:22:03Z</time>
      </trkpt>
      <trkpt lat="43.7336" lon="3.53896">
        <ele>307.16</ele>
        <time>2023-02-13T10:22:08Z</time>
      </trkpt>
      <trkpt lat="43.73361" lon="3.53889">
        <ele>306.34</ele>
        <time>2023-02-13T10:22:12Z</time>
      </trkpt>
      <trkpt lat="43.73361" lon="3.53886">
        <ele>306.33</ele>
        <time>2023-02-13T10:22:14Z</time>
      </trkpt>
      <trkpt lat="43.73367" lon="3.53886">
        <ele>305.47</ele>
        <time>2023-02-13T10:22:18Z</time>
      </trkpt>
      <trkpt lat="43.7337" lon="3.53902">
        <ele>302.25</ele>
        <time>2023-02-13T10:22:32Z</time>
      </trkpt>
      <trkpt lat="43.73374" lon="3.53922">
        <ele>299.44</ele>
        <time>2023-02-13T10:22:49Z</time>
      </trkpt>
      <trkpt lat="43.73375" lon="3.53942">
        <ele>296.25</ele>
        <time>2023-02-13T10:23:01Z</time>
      </trkpt>
      <trkpt lat="43.73378" lon="3.53966">
        <ele>293.88</ele>
        <time>2023-02-13T10:23:17Z</time>
      </trkpt>
      <trkpt lat="43.73381" lon="3.53991">
        <ele>290.39</ele>
        <time>2023-02-13T10:23:34Z</time>
      </trkpt>
      <trkpt lat="43.73388" lon="3.54015">
        <ele>286.75</ele>
        <time>2023-02-13T10:23:54Z</time>
      </trkpt>
      <trkpt lat="43.73395" lon="3.54037">
        <ele>283.46</ele>
        <time>2023-02-13T10:24:11Z</time>
      </trkpt>
      <trkpt lat="43.73399" lon="3.5406">
        <ele>280.02</ele>
        <time>2023-02-13T10:24:28Z</time>
      </trkpt>
      <trkpt lat="43.73403" lon="3.54081">
        <ele>277.42</ele>
        <time>2023-02-13T10:24:41Z</time>
      </trkpt>
      <trkpt lat="43.73406" lon="3.54093">
        <ele>275.73</ele>
        <time>2023-02-13T10:24:56Z</time>
      </trkpt>
      <trkpt lat="43.73412" lon="3.54114">
        <ele>273.92</ele>
        <time>2023-02-13T10:25:13Z</time>
      </trkpt>
      <trkpt lat="43.73413" lon="3.54111">
        <ele>273.11</ele>
        <time>2023-02-13T10:25:20Z</time>
      </trkpt>
      <trkpt lat="43.73412" lon="3.54101">
        <ele>272.33</ele>
        <time>2023-02-13T10:25:27Z</time>
      </trkpt>
      <trkpt lat="43.73412" lon="3.54094">
        <ele>272.3</ele>
        <time>2023-02-13T10:25:32Z</time>
      </trkpt>
      <trkpt lat="43.73411" lon="3.54084">
        <ele>272.2</ele>
        <time>2023-02-13T10:25:47Z</time>
      </trkpt>
      <trkpt lat="43.73412" lon="3.54075">
        <ele>272.16</ele>
        <time>2023-02-13T10:25:56Z</time>
      </trkpt>
      <trkpt lat="43.73414" lon="3.5405">
        <ele>271.3</ele>
        <time>2023-02-13T10:26:12Z</time>
      </trkpt>
      <trkpt lat="43.73416" lon="3.54028">
        <ele>271.22</ele>
        <time>2023-02-13T10:26:25Z</time>
      </trkpt>
      <trkpt lat="43.73417" lon="3.53996">
        <ele>269.47</ele>
        <time>2023-02-13T10:26:43Z</time>
      </trkpt>
      <trkpt lat="43.73417" lon="3.5399">
        <ele>269.46</ele>
        <time>2023-02-13T10:26:46Z</time>
      </trkpt>
      <trkpt lat="43.73418" lon="3.53981">
        <ele>268.55</ele>
        <time>2023-02-13T10:26:51Z</time>
      </trkpt>
      <trkpt lat="43.7342" lon="3.53975">
        <ele>266.77</ele>
        <time>2023-02-13T10:27:02Z</time>
      </trkpt>
      <trkpt lat="43.73426" lon="3.53988">
        <ele>264.77</ele>
        <time>2023-02-13T10:27:14Z</time>
      </trkpt>
      <trkpt lat="43.73429" lon="3.53995">
        <ele>263.73</ele>
        <time>2023-02-13T10:27:19Z</time>
      </trkpt>
      <trkpt lat="43.73433" lon="3.54012">
        <ele>261.73</ele>
        <time>2023-02-13T10:27:32Z</time>
      </trkpt>
      <trkpt lat="43.73435" lon="3.54029">
        <ele>258.4</ele>
        <time>2023-02-13T10:27:44Z</time>
      </trkpt>
      <trkpt lat="43.73437" lon="3.5405">
        <ele>256.63</ele>
        <time>2023-02-13T10:28:02Z</time>
      </trkpt>
      <trkpt lat="43.73446" lon="3.5407">
        <ele>253.77</ele>
        <time>2023-02-13T10:28:20Z</time>
      </trkpt>
      <trkpt lat="43.73448" lon="3.54088">
        <ele>250.31</ele>
        <time>2023-02-13T10:28:34Z</time>
      </trkpt>
      <trkpt lat="43.73449" lon="3.54108">
        <ele>246.47</ele>
        <time>2023-02-13T10:28:52Z</time>
      </trkpt>
      <trkpt lat="43.73456" lon="3.54131">
        <ele>243.86</ele>
        <time>2023-02-13T10:29:09Z</time>
      </trkpt>
      <trkpt lat="43.73473" lon="3.54164">
        <ele>240.24</ele>
        <time>2023-02-13T10:29:28Z</time>
      </trkpt>
      <trkpt lat="43.73475" lon="3.54183">
        <ele>238.47</ele>
        <time>2023-02-13T10:29:48Z</time>
      </trkpt>
      <trkpt lat="43.73476" lon="3.54187">
        <ele>237.41</ele>
        <time>2023-02-13T10:29:55Z</time>
      </trkpt>
      <trkpt lat="43.73482" lon="3.54169">
        <ele>236.59</ele>
        <time>2023-02-13T10:30:06Z</time>
      </trkpt>
      <trkpt lat="43.73481" lon="3.54159">
        <ele>235.81</ele>
        <time>2023-02-13T10:30:12Z</time>
      </trkpt>
      <trkpt lat="43.73477" lon="3.5414">
        <ele>234.14</ele>
        <time>2023-02-13T10:30:25Z</time>
      </trkpt>
      <trkpt lat="43.7348" lon="3.54137">
        <ele>232.6</ele>
        <time>2023-02-13T10:30:36Z</time>
      </trkpt>
      <trkpt lat="43.7348" lon="3.5412">
        <ele>232.51</ele>
        <time>2023-02-13T10:30:55Z</time>
      </trkpt>
      <trkpt lat="43.7348" lon="3.54114">
        <ele>232.5</ele>
        <time>2023-02-13T10:30:58Z</time>
      </trkpt>
      <trkpt lat="43.7348" lon="3.54099">
        <ele>231.54</ele>
        <time>2023-02-13T10:31:08Z</time>
      </trkpt>
      <trkpt lat="43.7348" lon="3.54068">
        <ele>229.1</ele>
        <time>2023-02-13T10:31:26Z</time>
      </trkpt>
      <trkpt lat="43.73481" lon="3.54043">
        <ele>228.23</ele>
        <time>2023-02-13T10:31:40Z</time>
      </trkpt>
      <trkpt lat="43.73482" lon="3.54042">
        <ele>228.22</ele>
        <time>2023-02-13T10:31:41Z</time>
      </trkpt>
      <trkpt lat="43.73481" lon="3.54018">
        <ele>227.29</ele>
        <time>2023-02-13T10:31:56Z</time>
      </trkpt>
      <trkpt lat="43.73478" lon="3.54005">
        <ele>226.46</ele>
        <time>2023-02-13T10:32:03Z</time>
      </trkpt>
      <trkpt lat="43.73476" lon="3.53982">
        <ele>226.38</ele>
        <time>2023-02-13T10:32:15Z</time>
      </trkpt>
      <trkpt lat="43.73472" lon="3.53951">
        <ele>225.49</ele>
        <time>2023-02-13T10:32:33Z</time>
      </trkpt>
      <trkpt lat="43.7349" lon="3.53941">
        <ele>223.77</ele>
        <time>2023-02-13T10:32:49Z</time>
      </trkpt>
      <trkpt lat="43.73505" lon="3.53953">
        <ele>220.96</ele>
        <time>2023-02-13T10:33:03Z</time>
      </trkpt>
      <trkpt lat="43.73508" lon="3.53953">
        <ele>220.93</ele>
        <time>2023-02-13T10:33:06Z</time>
      </trkpt>
      <trkpt lat="43.73525" lon="3.53963">
        <ele>219.24</ele>
        <time>2023-02-13T10:33:25Z</time>
      </trkpt>
      <trkpt lat="43.73543" lon="3.53971">
        <ele>217.46</ele>
        <time>2023-02-13T10:33:38Z</time>
      </trkpt>
      <trkpt lat="43.7356" lon="3.53971">
        <ele>215.75</ele>
        <time>2023-02-13T10:33:53Z</time>
      </trkpt>
      <trkpt lat="43.73562" lon="3.5397">
        <ele>212.61</ele>
        <time>2023-02-13T10:33:55Z</time>
      </trkpt>
      <trkpt lat="43.73565" lon="3.53968">
        <ele>216.74</ele>
        <time>2023-02-13T10:33:57Z</time>
      </trkpt>
      <trkpt lat="43.73566" lon="3.53967">
        <ele>216.74</ele>
        <time>2023-02-13T10:33:58Z</time>
      </trkpt>
      <trkpt lat="43.7357" lon="3.53967">
        <ele>214.27</ele>
        <time>2023-02-13T10:34:06Z</time>
      </trkpt>
      <trkpt lat="43.73573" lon="3.53966">
        <ele>213.52</ele>
        <time>2023-02-13T10:34:31Z</time>
      </trkpt>
      <trkpt lat="43.73571" lon="3.53966">
        <ele>213.6</ele>
        <time>2023-02-13T10:34:59Z</time>
      </trkpt>
      <trkpt lat="43.73568" lon="3.5397">
        <ele>213.7</ele>
        <time>2023-02-13T10:35:22Z</time>
      </trkpt>
      <trkpt lat="43.73555" lon="3.53981">
        <ele>212.98</ele>
        <time>2023-02-13T10:35:37Z</time>
      </trkpt>
      <trkpt lat="43.7355" lon="3.53984">
        <ele>212.15</ele>
        <time>2023-02-13T10:35:42Z</time>
      </trkpt>
      <trkpt lat="43.73545" lon="3.53985">
        <ele>211.28</ele>
        <time>2023-02-13T10:35:47Z</time>
      </trkpt>
      <trkpt lat="43.7354" lon="3.53986">
        <ele>211.29</ele>
        <time>2023-02-13T10:35:51Z</time>
      </trkpt>
      <trkpt lat="43.73526" lon="3.5399">
        <ele>210.43</ele>
        <time>2023-02-13T10:36:03Z</time>
      </trkpt>
      <trkpt lat="43.73525" lon="3.53991">
        <ele>210.43</ele>
        <time>2023-02-13T10:36:04Z</time>
      </trkpt>
      <trkpt lat="43.73511" lon="3.5399">
        <ele>208.87</ele>
        <time>2023-02-13T10:36:21Z</time>
      </trkpt>
      <trkpt lat="43.73511" lon="3.54002">
        <ele>205.28</ele>
        <time>2023-02-13T10:36:38Z</time>
      </trkpt>
      <trkpt lat="43.73513" lon="3.54015">
        <ele>202.61</ele>
        <time>2023-02-13T10:36:50Z</time>
      </trkpt>
      <trkpt lat="43.73516" lon="3.54038">
        <ele>200.95</ele>
        <time>2023-02-13T10:37:08Z</time>
      </trkpt>
      <trkpt lat="43.73511" lon="3.54068">
        <ele>198.37</ele>
        <time>2023-02-13T10:37:26Z</time>
      </trkpt>
      <trkpt lat="43.73509" lon="3.54092">
        <ele>197.37</ele>
        <time>2023-02-13T10:37:44Z</time>
      </trkpt>
      <trkpt lat="43.73511" lon="3.54111">
        <ele>194.66</ele>
        <time>2023-02-13T10:37:59Z</time>
      </trkpt>
      <trkpt lat="43.73523" lon="3.54128">
        <ele>191.63</ele>
        <time>2023-02-13T10:38:13Z</time>
      </trkpt>
      <trkpt lat="43.73542" lon="3.54147">
        <ele>188.04</ele>
        <time>2023-02-13T10:38:32Z</time>
      </trkpt>
      <trkpt lat="43.73555" lon="3.5416">
        <ele>184.48</ele>
        <time>2023-02-13T10:38:51Z</time>
      </trkpt>
      <trkpt lat="43.73567" lon="3.54184">
        <ele>180.85</ele>
        <time>2023-02-13T10:39:11Z</time>
      </trkpt>
      <trkpt lat="43.73576" lon="3.542">
        <ele>178.82</ele>
        <time>2023-02-13T10:39:23Z</time>
      </trkpt>
      <trkpt lat="43.73586" lon="3.54221">
        <ele>175.96</ele>
        <time>2023-02-13T10:39:42Z</time>
      </trkpt>
      <trkpt lat="43.73587" lon="3.54238">
        <ele>173.43</ele>
        <time>2023-02-13T10:40:00Z</time>
      </trkpt>
      <trkpt lat="43.73595" lon="3.54245">
        <ele>160.18</ele>
        <time>2023-02-13T10:40:21Z</time>
      </trkpt>
      <trkpt lat="43.73595" lon="3.54245">
        <ele>173.54</ele>
        <time>2023-02-13T10:40:22Z</time>
      </trkpt>
      <trkpt lat="43.73595" lon="3.54245">
        <ele>175.28</ele>
        <time>2023-02-13T10:40:23Z</time>
      </trkpt>
      <trkpt lat="43.73596" lon="3.54246">
        <ele>172.29</ele>
        <time>2023-02-13T10:40:25Z</time>
      </trkpt>
      <trkpt lat="43.73601" lon="3.54238">
        <ele>171.17</ele>
        <time>2023-02-13T10:40:38Z</time>
      </trkpt>
      <trkpt lat="43.73601" lon="3.54228">
        <ele>170.36</ele>
        <time>2023-02-13T10:40:47Z</time>
      </trkpt>
      <trkpt lat="43.73602" lon="3.5422">
        <ele>169.47</ele>
        <time>2023-02-13T10:40:52Z</time>
      </trkpt>
      <trkpt lat="43.736" lon="3.54204">
        <ele>167.66</ele>
        <time>2023-02-13T10:41:06Z</time>
      </trkpt>
      <trkpt lat="43.73597" lon="3.54188">
        <ele>166.05</ele>
        <time>2023-02-13T10:41:19Z</time>
      </trkpt>
      <trkpt lat="43.73597" lon="3.54174">
        <ele>164.24</ele>
        <time>2023-02-13T10:41:28Z</time>
      </trkpt>
      <trkpt lat="43.73597" lon="3.54168">
        <ele>163.36</ele>
        <time>2023-02-13T10:41:32Z</time>
      </trkpt>
      <trkpt lat="43.73595" lon="3.54154">
        <ele>161.51</ele>
        <time>2023-02-13T10:41:42Z</time>
      </trkpt>
      <trkpt lat="43.73608" lon="3.54154">
        <ele>158.06</ele>
        <time>2023-02-13T10:42:00Z</time>
      </trkpt>
      <trkpt lat="43.73618" lon="3.5417">
        <ele>155.2</ele>
        <time>2023-02-13T10:42:19Z</time>
      </trkpt>
      <trkpt lat="43.73623" lon="3.54195">
        <ele>152.63</ele>
        <time>2023-02-13T10:42:38Z</time>
      </trkpt>
      <trkpt lat="43.73632" lon="3.54218">
        <ele>149.89</ele>
        <time>2023-02-13T10:42:53Z</time>
      </trkpt>
      <trkpt lat="43.73635" lon="3.54245">
        <ele>147.98</ele>
        <time>2023-02-13T10:43:10Z</time>
      </trkpt>
      <trkpt lat="43.7363" lon="3.54279">
        <ele>145.18</ele>
        <time>2023-02-13T10:43:31Z</time>
      </trkpt>
      <trkpt lat="43.73624" lon="3.54293">
        <ele>142.6</ele>
        <time>2023-02-13T10:43:42Z</time>
      </trkpt>
      <trkpt lat="43.73615" lon="3.54314">
        <ele>139.79</ele>
        <time>2023-02-13T10:43:58Z</time>
      </trkpt>
      <trkpt lat="43.73608" lon="3.54329">
        <ele>138.05</ele>
        <time>2023-02-13T10:44:11Z</time>
      </trkpt>
      <trkpt lat="43.73609" lon="3.54342">
        <ele>136.1</ele>
        <time>2023-02-13T10:44:21Z</time>
      </trkpt>
      <trkpt lat="43.73609" lon="3.54376">
        <ele>133.43</ele>
        <time>2023-02-13T10:44:40Z</time>
      </trkpt>
      <trkpt lat="43.73599" lon="3.54399">
        <ele>131.58</ele>
        <time>2023-02-13T10:44:54Z</time>
      </trkpt>
      <trkpt lat="43.73597" lon="3.54403">
        <ele>131.53</ele>
        <time>2023-02-13T10:44:57Z</time>
      </trkpt>
      <trkpt lat="43.73595" lon="3.5443">
        <ele>127.68</ele>
        <time>2023-02-13T10:45:11Z</time>
      </trkpt>
      <trkpt lat="43.73597" lon="3.5445">
        <ele>125.89</ele>
        <time>2023-02-13T10:45:24Z</time>
      </trkpt>
      <trkpt lat="43.73603" lon="3.54447">
        <ele>122.05</ele>
        <time>2023-02-13T10:45:39Z</time>
      </trkpt>
      <trkpt lat="43.73604" lon="3.54444">
        <ele>122.01</ele>
        <time>2023-02-13T10:45:42Z</time>
      </trkpt>
      <trkpt lat="43.73616" lon="3.54441">
        <ele>120.11</ele>
        <time>2023-02-13T10:45:59Z</time>
      </trkpt>
      <trkpt lat="43.73626" lon="3.54421">
        <ele>117.45</ele>
        <time>2023-02-13T10:46:16Z</time>
      </trkpt>
      <trkpt lat="43.73628" lon="3.54416">
        <ele>116.61</ele>
        <time>2023-02-13T10:46:20Z</time>
      </trkpt>
      <trkpt lat="43.7363" lon="3.54412">
        <ele>115.79</ele>
        <time>2023-02-13T10:46:22Z</time>
      </trkpt>
      <trkpt lat="43.73635" lon="3.54409">
        <ele>114.97</ele>
        <time>2023-02-13T10:46:25Z</time>
      </trkpt>
      <trkpt lat="43.73638" lon="3.54416">
        <ele>113.27</ele>
        <time>2023-02-13T10:46:35Z</time>
      </trkpt>
      <trkpt lat="43.73637" lon="3.54422">
        <ele>112.48</ele>
        <time>2023-02-13T10:46:39Z</time>
      </trkpt>
      <trkpt lat="43.73635" lon="3.54443">
        <ele>110.62</ele>
        <time>2023-02-13T10:46:50Z</time>
      </trkpt>
      <trkpt lat="43.73635" lon="3.54474">
        <ele>107.89</ele>
        <time>2023-02-13T10:47:08Z</time>
      </trkpt>
      <trkpt lat="43.73637" lon="3.54496">
        <ele>106.34</ele>
        <time>2023-02-13T10:47:24Z</time>
      </trkpt>
      <trkpt lat="43.73634" lon="3.54518">
        <ele>103.66</ele>
        <time>2023-02-13T10:47:41Z</time>
      </trkpt>
      <trkpt lat="43.73634" lon="3.54536">
        <ele>99.92</ele>
        <time>2023-02-13T10:47:53Z</time>
      </trkpt>
      <trkpt lat="43.73641" lon="3.5455">
        <ele>98.23</ele>
        <time>2023-02-13T10:48:03Z</time>
      </trkpt>
      <trkpt lat="43.73643" lon="3.54574">
        <ele>94.73</ele>
        <time>2023-02-13T10:48:15Z</time>
      </trkpt>
      <trkpt lat="43.73643" lon="3.54595">
        <ele>91.33</ele>
        <time>2023-02-13T10:48:31Z</time>
      </trkpt>
      <trkpt lat="43.73651" lon="3.54612">
        <ele>87.55</ele>
        <time>2023-02-13T10:48:46Z</time>
      </trkpt>
      <trkpt lat="43.73658" lon="3.54623">
        <ele>86.72</ele>
        <time>2023-02-13T10:48:54Z</time>
      </trkpt>
      <trkpt lat="43.73662" lon="3.54636">
        <ele>85.78</ele>
        <time>2023-02-13T10:49:03Z</time>
      </trkpt>
      <trkpt lat="43.73662" lon="3.54655">
        <ele>85.03</ele>
        <time>2023-02-13T10:49:14Z</time>
      </trkpt>
      <trkpt lat="43.73663" lon="3.54656">
        <ele>85.03</ele>
        <time>2023-02-13T10:49:15Z</time>
      </trkpt>
      <trkpt lat="43.73675" lon="3.5466">
        <ele>84.31</ele>
        <time>2023-02-13T10:49:33Z</time>
      </trkpt>
      <trkpt lat="43.73693" lon="3.54657">
        <ele>84.44</ele>
        <time>2023-02-13T10:49:52Z</time>
      </trkpt>
      <trkpt lat="43.73688" lon="3.54664">
        <ele>84.45</ele>
        <time>2023-02-13T10:50:04Z</time>
      </trkpt>
      <trkpt lat="43.73685" lon="3.54663">
        <ele>84.54</ele>
        <time>2023-02-13T10:50:35Z</time>
      </trkpt>
      <trkpt lat="43.73684" lon="3.54667">
        <ele>84.57</ele>
        <time>2023-02-13T10:50:41Z</time>
      </trkpt>
      <trkpt lat="43.73679" lon="3.54677">
        <ele>84.62</ele>
        <time>2023-02-13T10:50:49Z</time>
      </trkpt>
      <trkpt lat="43.73674" lon="3.54697">
        <ele>84.66</ele>
        <time>2023-02-13T10:51:05Z</time>
      </trkpt>
      <trkpt lat="43.73673" lon="3.54711">
        <ele>84.73</ele>
        <time>2023-02-13T10:51:14Z</time>
      </trkpt>
      <trkpt lat="43.73676" lon="3.54732">
        <ele>84.8</ele>
        <time>2023-02-13T10:51:29Z</time>
      </trkpt>
      <trkpt lat="43.73671" lon="3.54761">
        <ele>84.02</ele>
        <time>2023-02-13T10:51:44Z</time>
      </trkpt>
      <trkpt lat="43.73665" lon="3.54778">
        <ele>83.27</ele>
        <time>2023-02-13T10:51:56Z</time>
      </trkpt>
      <trkpt lat="43.73662" lon="3.54782">
        <ele>83.29</ele>
        <time>2023-02-13T10:52:00Z</time>
      </trkpt>
      <trkpt lat="43.73642" lon="3.54795">
        <ele>82.62</ele>
        <time>2023-02-13T10:52:19Z</time>
      </trkpt>
      <trkpt lat="43.73637" lon="3.54795">
        <ele>82.66</ele>
        <time>2023-02-13T10:52:22Z</time>
      </trkpt>
      <trkpt lat="43.7362" lon="3.54788">
        <ele>82.74</ele>
        <time>2023-02-13T10:52:36Z</time>
      </trkpt>
      <trkpt lat="43.73605" lon="3.54786">
        <ele>82.12</ele>
        <time>2023-02-13T10:52:52Z</time>
      </trkpt>
      <trkpt lat="43.73588" lon="3.54784">
        <ele>82.26</ele>
        <time>2023-02-13T10:53:06Z</time>
      </trkpt>
      <trkpt lat="43.73585" lon="3.54785">
        <ele>82.29</ele>
        <time>2023-02-13T10:53:08Z</time>
      </trkpt>
      <trkpt lat="43.73567" lon="3.54786">
        <ele>81.62</ele>
        <time>2023-02-13T10:53:20Z</time>
      </trkpt>
      <trkpt lat="43.73556" lon="3.54787">
        <ele>81.72</ele>
        <time>2023-02-13T10:53:29Z</time>
      </trkpt>
      <trkpt lat="43.73549" lon="3.54792">
        <ele>82.01</ele>
        <time>2023-02-13T10:53:46Z</time>
      </trkpt>
      <trkpt lat="43.73533" lon="3.54803">
        <ele>82.19</ele>
        <time>2023-02-13T10:54:02Z</time>
      </trkpt>
      <trkpt lat="43.73522" lon="3.54804">
        <ele>81.53</ele>
        <time>2023-02-13T10:54:14Z</time>
      </trkpt>
      <trkpt lat="43.73522" lon="3.54804">
        <ele>81.66</ele>
        <time>2023-02-13T10:54:25Z</time>
      </trkpt>
      <trkpt lat="43.73521" lon="3.54808">
        <ele>81.98</ele>
        <time>2023-02-13T10:54:54Z</time>
      </trkpt>
      <trkpt lat="43.73521" lon="3.54803">
        <ele>82.32</ele>
        <time>2023-02-13T10:55:25Z</time>
      </trkpt>
      <trkpt lat="43.7352" lon="3.54803">
        <ele>82.62</ele>
        <time>2023-02-13T10:55:53Z</time>
      </trkpt>
      <trkpt lat="43.7352" lon="3.54802">
        <ele>82.91</ele>
        <time>2023-02-13T10:56:21Z</time>
      </trkpt>
      <trkpt lat="43.73521" lon="3.54803">
        <ele>83.23</ele>
        <time>2023-02-13T10:56:50Z</time>
      </trkpt>
      <trkpt lat="43.73521" lon="3.54782">
        <ele>82.64</ele>
        <time>2023-02-13T10:57:09Z</time>
      </trkpt>
      <trkpt lat="43.73521" lon="3.54774">
        <ele>82.94</ele>
        <time>2023-02-13T10:57:40Z</time>
      </trkpt>
      <trkpt lat="43.73526" lon="3.54774">
        <ele>83.26</ele>
        <time>2023-02-13T10:58:10Z</time>
      </trkpt>
      <trkpt lat="43.73523" lon="3.54786">
        <ele>83.55</ele>
        <time>2023-02-13T10:58:34Z</time>
      </trkpt>
      <trkpt lat="43.73522" lon="3.54794">
        <ele>83.77</ele>
        <time>2023-02-13T10:58:54Z</time>
      </trkpt>
      <trkpt lat="43.73522" lon="3.54796">
        <ele>84.01</ele>
        <time>2023-02-13T10:59:20Z</time>
      </trkpt>
      <trkpt lat="43.73525" lon="3.54797">
        <ele>84.29</ele>
        <time>2023-02-13T10:59:51Z</time>
      </trkpt>
      <trkpt lat="43.7352" lon="3.54804">
        <ele>84.36</ele>
        <time>2023-02-13T10:59:58Z</time>
      </trkpt>
      <trkpt lat="43.73509" lon="3.54807">
        <ele>84.42</ele>
        <time>2023-02-13T11:00:07Z</time>
      </trkpt>
      <trkpt lat="43.735" lon="3.5481">
        <ele>84.45</ele>
        <time>2023-02-13T11:00:14Z</time>
      </trkpt>
      <trkpt lat="43.73489" lon="3.54806">
        <ele>84.54</ele>
        <time>2023-02-13T11:00:27Z</time>
      </trkpt>
      <trkpt lat="43.73484" lon="3.54803">
        <ele>84.59</ele>
        <time>2023-02-13T11:00:35Z</time>
      </trkpt>
      <trkpt lat="43.73476" lon="3.54812">
        <ele>84.7</ele>
        <time>2023-02-13T11:00:49Z</time>
      </trkpt>
      <trkpt lat="43.73462" lon="3.54811">
        <ele>84.79</ele>
        <time>2023-02-13T11:01:10Z</time>
      </trkpt>
      <trkpt lat="43.7346" lon="3.54811">
        <ele>84.8</ele>
        <time>2023-02-13T11:01:12Z</time>
      </trkpt>
      <trkpt lat="43.73458" lon="3.54812">
        <ele>84.8</ele>
        <time>2023-02-13T11:01:15Z</time>
      </trkpt>
      <trkpt lat="43.7345" lon="3.54825">
        <ele>84.82</ele>
        <time>2023-02-13T11:01:24Z</time>
      </trkpt>
      <trkpt lat="43.73444" lon="3.5483">
        <ele>84.83</ele>
        <time>2023-02-13T11:01:28Z</time>
      </trkpt>
      <trkpt lat="43.73443" lon="3.54831">
        <ele>84.82</ele>
        <time>2023-02-13T11:01:30Z</time>
      </trkpt>
      <trkpt lat="43.73437" lon="3.54839">
        <ele>84.82</ele>
        <time>2023-02-13T11:01:51Z</time>
      </trkpt>
      <trkpt lat="43.73434" lon="3.54847">
        <ele>84.81</ele>
        <time>2023-02-13T11:02:05Z</time>
      </trkpt>
      <trkpt lat="43.73423" lon="3.54855">
        <ele>83.92</ele>
        <time>2023-02-13T11:02:31Z</time>
      </trkpt>
      <trkpt lat="43.73425" lon="3.54859">
        <ele>83.9</ele>
        <time>2023-02-13T11:02:48Z</time>
      </trkpt>
      <trkpt lat="43.73437" lon="3.54955">
        <ele>82.78</ele>
        <time>2023-02-13T11:04:16Z</time>
      </trkpt>
      <trkpt lat="43.73402" lon="3.54881">
        <ele>88.91</ele>
        <time>2023-02-13T11:54:45Z</time>
      </trkpt>
      <trkpt lat="43.73404" lon="3.54881">
        <ele>88.91</ele>
        <time>2023-02-13T11:54:46Z</time>
      </trkpt>
      <trkpt lat="43.73406" lon="3.54878">
        <ele>89</ele>
        <time>2023-02-13T11:55:08Z</time>
      </trkpt>
      <trkpt lat="43.73407" lon="3.54878">
        <ele>89.23</ele>
        <time>2023-02-13T11:55:22Z</time>
      </trkpt>
      <trkpt lat="43.73405" lon="3.5488">
        <ele>89.56</ele>
        <time>2023-02-13T11:55:38Z</time>
      </trkpt>
      <trkpt lat="43.73396" lon="3.54869">
        <ele>89.76</ele>
        <time>2023-02-13T11:55:47Z</time>
      </trkpt>
      <trkpt lat="43.73392" lon="3.5487">
        <ele>89.8</ele>
        <time>2023-02-13T11:55:49Z</time>
      </trkpt>
      <trkpt lat="43.73389" lon="3.54875">
        <ele>90.04</ele>
        <time>2023-02-13T11:56:00Z</time>
      </trkpt>
      <trkpt lat="43.7338" lon="3.54871">
        <ele>90.41</ele>
        <time>2023-02-13T11:56:17Z</time>
      </trkpt>
      <trkpt lat="43.73375" lon="3.54872">
        <ele>90.53</ele>
        <time>2023-02-13T11:56:23Z</time>
      </trkpt>
      <trkpt lat="43.73375" lon="3.54875">
        <ele>90.85</ele>
        <time>2023-02-13T11:56:38Z</time>
      </trkpt>
      <trkpt lat="43.73379" lon="3.54881">
        <ele>91.2</ele>
        <time>2023-02-13T11:56:56Z</time>
      </trkpt>
      <trkpt lat="43.73382" lon="3.54884">
        <ele>91.34</ele>
        <time>2023-02-13T11:57:03Z</time>
      </trkpt>
      <trkpt lat="43.7339" lon="3.5489">
        <ele>91.59</ele>
        <time>2023-02-13T11:57:17Z</time>
      </trkpt>
      <trkpt lat="43.73398" lon="3.54898">
        <ele>91.76</ele>
        <time>2023-02-13T11:57:27Z</time>
      </trkpt>
      <trkpt lat="43.73405" lon="3.54909">
        <ele>95.24</ele>
        <time>2023-02-13T11:57:49Z</time>
      </trkpt>
      <trkpt lat="43.73406" lon="3.54913">
        <ele>96.28</ele>
        <time>2023-02-13T11:57:51Z</time>
      </trkpt>
      <trkpt lat="43.73406" lon="3.54913">
        <ele>96.37</ele>
        <time>2023-02-13T11:57:52Z</time>
      </trkpt>
      <trkpt lat="43.73409" lon="3.54912">
        <ele>96.46</ele>
        <time>2023-02-13T11:57:59Z</time>
      </trkpt>
      <trkpt lat="43.73413" lon="3.54926">
        <ele>96.63</ele>
        <time>2023-02-13T11:58:13Z</time>
      </trkpt>
      <trkpt lat="43.73407" lon="3.54933">
        <ele>96.89</ele>
        <time>2023-02-13T11:58:32Z</time>
      </trkpt>
      <trkpt lat="43.73406" lon="3.54938">
        <ele>96.96</ele>
        <time>2023-02-13T11:58:37Z</time>
      </trkpt>
      <trkpt lat="43.73403" lon="3.5495">
        <ele>97.13</ele>
        <time>2023-02-13T11:58:50Z</time>
      </trkpt>
      <trkpt lat="43.73408" lon="3.54953">
        <ele>97.26</ele>
        <time>2023-02-13T11:58:58Z</time>
      </trkpt>
      <trkpt lat="43.73409" lon="3.54959">
        <ele>97.49</ele>
        <time>2023-02-13T11:59:13Z</time>
      </trkpt>
      <trkpt lat="43.73409" lon="3.54962">
        <ele>97.73</ele>
        <time>2023-02-13T11:59:33Z</time>
      </trkpt>
      <trkpt lat="43.734" lon="3.54964">
        <ele>95.42</ele>
        <time>2023-02-13T11:59:52Z</time>
      </trkpt>
      <trkpt lat="43.73394" lon="3.54975">
        <ele>94.73</ele>
        <time>2023-02-13T12:00:01Z</time>
      </trkpt>
      <trkpt lat="43.73392" lon="3.54986">
        <ele>94.1</ele>
        <time>2023-02-13T12:00:19Z</time>
      </trkpt>
      <trkpt lat="43.73391" lon="3.54992">
        <ele>93.32</ele>
        <time>2023-02-13T12:00:26Z</time>
      </trkpt>
      <trkpt lat="43.73391" lon="3.54996">
        <ele>93.33</ele>
        <time>2023-02-13T12:00:29Z</time>
      </trkpt>
      <trkpt lat="43.73384" lon="3.55">
        <ele>92.7</ele>
        <time>2023-02-13T12:00:47Z</time>
      </trkpt>
      <trkpt lat="43.73378" lon="3.55">
        <ele>92.73</ele>
        <time>2023-02-13T12:00:51Z</time>
      </trkpt>
      <trkpt lat="43.73377" lon="3.55">
        <ele>92.04</ele>
        <time>2023-02-13T12:01:07Z</time>
      </trkpt>
      <trkpt lat="43.73381" lon="3.55">
        <ele>92.19</ele>
        <time>2023-02-13T12:01:29Z</time>
      </trkpt>
      <trkpt lat="43.73379" lon="3.54999">
        <ele>92.24</ele>
        <time>2023-02-13T12:01:45Z</time>
      </trkpt>
      <trkpt lat="43.73379" lon="3.54996">
        <ele>92.33</ele>
        <time>2023-02-13T12:02:09Z</time>
      </trkpt>
      <trkpt lat="43.7338" lon="3.55">
        <ele>92.36</ele>
        <time>2023-02-13T12:02:17Z</time>
      </trkpt>
      <trkpt lat="43.73384" lon="3.55013">
        <ele>91.53</ele>
        <time>2023-02-13T12:02:25Z</time>
      </trkpt>
      <trkpt lat="43.73387" lon="3.55017">
        <ele>91.56</ele>
        <time>2023-02-13T12:02:28Z</time>
      </trkpt>
      <trkpt lat="43.7339" lon="3.55031">
        <ele>90.67</ele>
        <time>2023-02-13T12:02:38Z</time>
      </trkpt>
      <trkpt lat="43.73392" lon="3.55039">
        <ele>90.7</ele>
        <time>2023-02-13T12:02:44Z</time>
      </trkpt>
      <trkpt lat="43.73385" lon="3.55052">
        <ele>90.04</ele>
        <time>2023-02-13T12:03:01Z</time>
      </trkpt>
      <trkpt lat="43.73382" lon="3.55062">
        <ele>89.32</ele>
        <time>2023-02-13T12:03:16Z</time>
      </trkpt>
      <trkpt lat="43.73384" lon="3.55067">
        <ele>89.39</ele>
        <time>2023-02-13T12:03:28Z</time>
      </trkpt>
      <trkpt lat="43.73383" lon="3.55078">
        <ele>88.61</ele>
        <time>2023-02-13T12:03:43Z</time>
      </trkpt>
      <trkpt lat="43.73382" lon="3.5509">
        <ele>87.84</ele>
        <time>2023-02-13T12:03:53Z</time>
      </trkpt>
      <trkpt lat="43.73379" lon="3.55097">
        <ele>87.11</ele>
        <time>2023-02-13T12:04:08Z</time>
      </trkpt>
      <trkpt lat="43.73372" lon="3.55096">
        <ele>89.59</ele>
        <time>2023-02-13T12:04:24Z</time>
      </trkpt>
      <trkpt lat="43.73379" lon="3.55101">
        <ele>90.56</ele>
        <time>2023-02-13T12:04:38Z</time>
      </trkpt>
      <trkpt lat="43.73389" lon="3.55115">
        <ele>89.12</ele>
        <time>2023-02-13T12:05:02Z</time>
      </trkpt>
      <trkpt lat="43.73391" lon="3.55113">
        <ele>88.03</ele>
        <time>2023-02-13T12:05:10Z</time>
      </trkpt>
      <trkpt lat="43.73393" lon="3.55115">
        <ele>87.32</ele>
        <time>2023-02-13T12:05:25Z</time>
      </trkpt>
      <trkpt lat="43.7339" lon="3.55128">
        <ele>84.98</ele>
        <time>2023-02-13T12:05:35Z</time>
      </trkpt>
      <trkpt lat="43.73386" lon="3.5514">
        <ele>84.14</ele>
        <time>2023-02-13T12:05:44Z</time>
      </trkpt>
      <trkpt lat="43.73387" lon="3.55148">
        <ele>83.31</ele>
        <time>2023-02-13T12:05:49Z</time>
      </trkpt>
      <trkpt lat="43.73388" lon="3.55153">
        <ele>83.31</ele>
        <time>2023-02-13T12:05:53Z</time>
      </trkpt>
      <trkpt lat="43.73385" lon="3.55171">
        <ele>82.48</ele>
        <time>2023-02-13T12:06:05Z</time>
      </trkpt>
      <trkpt lat="43.73385" lon="3.55175">
        <ele>81.64</ele>
        <time>2023-02-13T12:06:07Z</time>
      </trkpt>
      <trkpt lat="43.73383" lon="3.55181">
        <ele>81.66</ele>
        <time>2023-02-13T12:06:18Z</time>
      </trkpt>
      <trkpt lat="43.73379" lon="3.55189">
        <ele>79.97</ele>
        <time>2023-02-13T12:06:33Z</time>
      </trkpt>
      <trkpt lat="43.73382" lon="3.5519">
        <ele>80</ele>
        <time>2023-02-13T12:06:57Z</time>
      </trkpt>
      <trkpt lat="43.73379" lon="3.55186">
        <ele>80.01</ele>
        <time>2023-02-13T12:07:00Z</time>
      </trkpt>
      <trkpt lat="43.73377" lon="3.55179">
        <ele>80.01</ele>
        <time>2023-02-13T12:07:06Z</time>
      </trkpt>
      <trkpt lat="43.73374" lon="3.55169">
        <ele>80.01</ele>
        <time>2023-02-13T12:07:11Z</time>
      </trkpt>
      <trkpt lat="43.73369" lon="3.55148">
        <ele>80</ele>
        <time>2023-02-13T12:07:26Z</time>
      </trkpt>
      <trkpt lat="43.73362" lon="3.55137">
        <ele>80.01</ele>
        <time>2023-02-13T12:07:35Z</time>
      </trkpt>
      <trkpt lat="43.73356" lon="3.55118">
        <ele>80</ele>
        <time>2023-02-13T12:07:49Z</time>
      </trkpt>
      <trkpt lat="43.73349" lon="3.55114">
        <ele>80</ele>
        <time>2023-02-13T12:08:15Z</time>
      </trkpt>
      <trkpt lat="43.73346" lon="3.55101">
        <ele>80.08</ele>
        <time>2023-02-13T12:08:36Z</time>
      </trkpt>
      <trkpt lat="43.73348" lon="3.55087">
        <ele>80.21</ele>
        <time>2023-02-13T12:08:53Z</time>
      </trkpt>
      <trkpt lat="43.7335" lon="3.55076">
        <ele>82.64</ele>
        <time>2023-02-13T12:09:04Z</time>
      </trkpt>
      <trkpt lat="43.73356" lon="3.55056">
        <ele>83.6</ele>
        <time>2023-02-13T12:09:21Z</time>
      </trkpt>
      <trkpt lat="43.7336" lon="3.55043">
        <ele>85.31</ele>
        <time>2023-02-13T12:09:36Z</time>
      </trkpt>
      <trkpt lat="43.73368" lon="3.5504">
        <ele>86.18</ele>
        <time>2023-02-13T12:09:45Z</time>
      </trkpt>
      <trkpt lat="43.73366" lon="3.55031">
        <ele>87.04</ele>
        <time>2023-02-13T12:09:49Z</time>
      </trkpt>
      <trkpt lat="43.73361" lon="3.55009">
        <ele>90.65</ele>
        <time>2023-02-13T12:10:06Z</time>
      </trkpt>
      <trkpt lat="43.7337" lon="3.54999">
        <ele>93.11</ele>
        <time>2023-02-13T12:10:23Z</time>
      </trkpt>
      <trkpt lat="43.73382" lon="3.55005">
        <ele>94.55</ele>
        <time>2023-02-13T12:10:41Z</time>
      </trkpt>
      <trkpt lat="43.73389" lon="3.54994">
        <ele>95.31</ele>
        <time>2023-02-13T12:11:00Z</time>
      </trkpt>
      <trkpt lat="43.73399" lon="3.54977">
        <ele>97.71</ele>
        <time>2023-02-13T12:11:21Z</time>
      </trkpt>
      <trkpt lat="43.73396" lon="3.54967">
        <ele>98.5</ele>
        <time>2023-02-13T12:11:30Z</time>
      </trkpt>
      <trkpt lat="43.73405" lon="3.54944">
        <ele>100.96</ele>
        <time>2023-02-13T12:11:50Z</time>
      </trkpt>
      <trkpt lat="43.73415" lon="3.54927">
        <ele>100.81</ele>
        <time>2023-02-13T12:12:06Z</time>
      </trkpt>
      <trkpt lat="43.73416" lon="3.54916">
        <ele>100.75</ele>
        <time>2023-02-13T12:12:13Z</time>
      </trkpt>
      <trkpt lat="43.73414" lon="3.54902">
        <ele>98.12</ele>
        <time>2023-02-13T12:12:31Z</time>
      </trkpt>
      <trkpt lat="43.73403" lon="3.54885">
        <ele>97.23</ele>
        <time>2023-02-13T12:12:45Z</time>
      </trkpt>
      <trkpt lat="43.73406" lon="3.54883">
        <ele>97.24</ele>
        <time>2023-02-13T12:12:46Z</time>
      </trkpt>
      <trkpt lat="43.73423" lon="3.54871">
        <ele>97.21</ele>
        <time>2023-02-13T12:12:57Z</time>
      </trkpt>
      <trkpt lat="43.73433" lon="3.54863">
        <ele>97.14</ele>
        <time>2023-02-13T12:13:13Z</time>
      </trkpt>
      <trkpt lat="43.73443" lon="3.5485">
        <ele>97.09</ele>
        <time>2023-02-13T12:13:28Z</time>
      </trkpt>
      <trkpt lat="43.73445" lon="3.54849">
        <ele>97.04</ele>
        <time>2023-02-13T12:13:41Z</time>
      </trkpt>
      <trkpt lat="43.73455" lon="3.5484">
        <ele>97</ele>
        <time>2023-02-13T12:13:54Z</time>
      </trkpt>
      <trkpt lat="43.73467" lon="3.54831">
        <ele>96.96</ele>
        <time>2023-02-13T12:14:10Z</time>
      </trkpt>
      <trkpt lat="43.73471" lon="3.5483">
        <ele>96.95</ele>
        <time>2023-02-13T12:14:14Z</time>
      </trkpt>
      <trkpt lat="43.73473" lon="3.54829">
        <ele>96.95</ele>
        <time>2023-02-13T12:14:16Z</time>
      </trkpt>
      <trkpt lat="43.73496" lon="3.54813">
        <ele>96.93</ele>
        <time>2023-02-13T12:14:37Z</time>
      </trkpt>
      <trkpt lat="43.73522" lon="3.54802">
        <ele>96.91</ele>
        <time>2023-02-13T12:14:53Z</time>
      </trkpt>
      <trkpt lat="43.73526" lon="3.54801">
        <ele>99.16</ele>
        <time>2023-02-13T12:14:57Z</time>
      </trkpt>
      <trkpt lat="43.73537" lon="3.54801">
        <ele>99.17</ele>
        <time>2023-02-13T12:15:03Z</time>
      </trkpt>
      <trkpt lat="43.73539" lon="3.54798">
        <ele>99.18</ele>
        <time>2023-02-13T12:15:12Z</time>
      </trkpt>
      <trkpt lat="43.73539" lon="3.54797">
        <ele>99.24</ele>
        <time>2023-02-13T12:15:28Z</time>
      </trkpt>
      <trkpt lat="43.73537" lon="3.54797">
        <ele>99.31</ele>
        <time>2023-02-13T12:15:43Z</time>
      </trkpt>
      <trkpt lat="43.73537" lon="3.54799">
        <ele>99.39</ele>
        <time>2023-02-13T12:15:59Z</time>
      </trkpt>
      <trkpt lat="43.73539" lon="3.54803">
        <ele>99.65</ele>
        <time>2023-02-13T12:16:58Z</time>
      </trkpt>
      <trkpt lat="43.73544" lon="3.54802">
        <ele>99.68</ele>
        <time>2023-02-13T12:17:06Z</time>
      </trkpt>
      <trkpt lat="43.73548" lon="3.548">
        <ele>99.7</ele>
        <time>2023-02-13T12:17:11Z</time>
      </trkpt>
      <trkpt lat="43.73562" lon="3.54794">
        <ele>99.75</ele>
        <time>2023-02-13T12:17:25Z</time>
      </trkpt>
      <trkpt lat="43.73573" lon="3.54791">
        <ele>100.67</ele>
        <time>2023-02-13T12:17:38Z</time>
      </trkpt>
      <trkpt lat="43.73581" lon="3.54789">
        <ele>97.61</ele>
        <time>2023-02-13T12:17:47Z</time>
      </trkpt>
      <trkpt lat="43.73584" lon="3.5479">
        <ele>101.94</ele>
        <time>2023-02-13T12:17:50Z</time>
      </trkpt>
      <trkpt lat="43.73585" lon="3.5479">
        <ele>101.93</ele>
        <time>2023-02-13T12:17:51Z</time>
      </trkpt>
      <trkpt lat="43.73594" lon="3.5479">
        <ele>96.1</ele>
        <time>2023-02-13T12:18:02Z</time>
      </trkpt>
      <trkpt lat="43.73595" lon="3.5479">
        <ele>104.15</ele>
        <time>2023-02-13T12:18:03Z</time>
      </trkpt>
      <trkpt lat="43.73598" lon="3.5479">
        <ele>105.11</ele>
        <time>2023-02-13T12:18:05Z</time>
      </trkpt>
      <trkpt lat="43.736" lon="3.54789">
        <ele>102.25</ele>
        <time>2023-02-13T12:18:07Z</time>
      </trkpt>
      <trkpt lat="43.73602" lon="3.54789">
        <ele>105.88</ele>
        <time>2023-02-13T12:18:09Z</time>
      </trkpt>
      <trkpt lat="43.73603" lon="3.54789">
        <ele>105.88</ele>
        <time>2023-02-13T12:18:10Z</time>
      </trkpt>
      <trkpt lat="43.73604" lon="3.54789">
        <ele>99.3</ele>
        <time>2023-02-13T12:18:11Z</time>
      </trkpt>
      <trkpt lat="43.73605" lon="3.54789">
        <ele>101.88</ele>
        <time>2023-02-13T12:18:12Z</time>
      </trkpt>
      <trkpt lat="43.73628" lon="3.54787">
        <ele>101.99</ele>
        <time>2023-02-13T12:18:30Z</time>
      </trkpt>
      <trkpt lat="43.73647" lon="3.54782">
        <ele>102.1</ele>
        <time>2023-02-13T12:18:48Z</time>
      </trkpt>
      <trkpt lat="43.73658" lon="3.54759">
        <ele>103.05</ele>
        <time>2023-02-13T12:19:02Z</time>
      </trkpt>
      <trkpt lat="43.7366" lon="3.54753">
        <ele>103.07</ele>
        <time>2023-02-13T12:19:06Z</time>
      </trkpt>
      <trkpt lat="43.73662" lon="3.54747">
        <ele>103.08</ele>
        <time>2023-02-13T12:19:09Z</time>
      </trkpt>
      <trkpt lat="43.73666" lon="3.54721">
        <ele>103.96</ele>
        <time>2023-02-13T12:19:21Z</time>
      </trkpt>
      <trkpt lat="43.73667" lon="3.54717">
        <ele>103.96</ele>
        <time>2023-02-13T12:19:23Z</time>
      </trkpt>
      <trkpt lat="43.73667" lon="3.54699">
        <ele>104.01</ele>
        <time>2023-02-13T12:19:33Z</time>
      </trkpt>
      <trkpt lat="43.73669" lon="3.54691">
        <ele>104.02</ele>
        <time>2023-02-13T12:19:37Z</time>
      </trkpt>
      <trkpt lat="43.73673" lon="3.54676">
        <ele>104.07</ele>
        <time>2023-02-13T12:19:47Z</time>
      </trkpt>
      <trkpt lat="43.73676" lon="3.54667">
        <ele>104.84</ele>
        <time>2023-02-13T12:19:53Z</time>
      </trkpt>
      <trkpt lat="43.73678" lon="3.54661">
        <ele>104.86</ele>
        <time>2023-02-13T12:19:58Z</time>
      </trkpt>
      <trkpt lat="43.7368" lon="3.54656">
        <ele>104.86</ele>
        <time>2023-02-13T12:20:02Z</time>
      </trkpt>
      <trkpt lat="43.73678" lon="3.54653">
        <ele>104.87</ele>
        <time>2023-02-13T12:20:06Z</time>
      </trkpt>
      <trkpt lat="43.73674" lon="3.54657">
        <ele>104.86</ele>
        <time>2023-02-13T12:20:11Z</time>
      </trkpt>
      <trkpt lat="43.73663" lon="3.54661">
        <ele>104.86</ele>
        <time>2023-02-13T12:20:22Z</time>
      </trkpt>
      <trkpt lat="43.73649" lon="3.54647">
        <ele>105.57</ele>
        <time>2023-02-13T12:20:35Z</time>
      </trkpt>
      <trkpt lat="43.73641" lon="3.54632">
        <ele>106.44</ele>
        <time>2023-02-13T12:20:49Z</time>
      </trkpt>
      <trkpt lat="43.73636" lon="3.54614">
        <ele>108.84</ele>
        <time>2023-02-13T12:21:02Z</time>
      </trkpt>
      <trkpt lat="43.73635" lon="3.546">
        <ele>111.46</ele>
        <time>2023-02-13T12:21:14Z</time>
      </trkpt>
      <trkpt lat="43.73633" lon="3.54583">
        <ele>114.2</ele>
        <time>2023-02-13T12:21:29Z</time>
      </trkpt>
      <trkpt lat="43.73631" lon="3.54567">
        <ele>117.39</ele>
        <time>2023-02-13T12:21:45Z</time>
      </trkpt>
      <trkpt lat="43.7363" lon="3.54548">
        <ele>119.82</ele>
        <time>2023-02-13T12:22:02Z</time>
      </trkpt>
      <trkpt lat="43.73631" lon="3.54531">
        <ele>122.91</ele>
        <time>2023-02-13T12:22:18Z</time>
      </trkpt>
      <trkpt lat="43.73632" lon="3.54522">
        <ele>119.85</ele>
        <time>2023-02-13T12:22:28Z</time>
      </trkpt>
      <trkpt lat="43.73632" lon="3.54521">
        <ele>125.5</ele>
        <time>2023-02-13T12:22:29Z</time>
      </trkpt>
      <trkpt lat="43.73632" lon="3.54518">
        <ele>126.81</ele>
        <time>2023-02-13T12:22:31Z</time>
      </trkpt>
      <trkpt lat="43.73636" lon="3.54491">
        <ele>126.54</ele>
        <time>2023-02-13T12:22:54Z</time>
      </trkpt>
      <trkpt lat="43.73648" lon="3.54483">
        <ele>127.15</ele>
        <time>2023-02-13T12:23:08Z</time>
      </trkpt>
      <trkpt lat="43.73651" lon="3.5447">
        <ele>127.89</ele>
        <time>2023-02-13T12:23:31Z</time>
      </trkpt>
      <trkpt lat="43.73651" lon="3.54448">
        <ele>129.39</ele>
        <time>2023-02-13T12:23:48Z</time>
      </trkpt>
      <trkpt lat="43.73649" lon="3.54426">
        <ele>132.64</ele>
        <time>2023-02-13T12:24:08Z</time>
      </trkpt>
      <trkpt lat="43.73644" lon="3.54413">
        <ele>134.26</ele>
        <time>2023-02-13T12:24:26Z</time>
      </trkpt>
      <trkpt lat="43.73637" lon="3.54425">
        <ele>136.51</ele>
        <time>2023-02-13T12:24:43Z</time>
      </trkpt>
      <trkpt lat="43.73635" lon="3.54433">
        <ele>137.17</ele>
        <time>2023-02-13T12:25:03Z</time>
      </trkpt>
      <trkpt lat="43.7363" lon="3.54449">
        <ele>137.89</ele>
        <time>2023-02-13T12:25:21Z</time>
      </trkpt>
      <trkpt lat="43.73623" lon="3.54464">
        <ele>140.34</ele>
        <time>2023-02-13T12:25:40Z</time>
      </trkpt>
      <trkpt lat="43.73622" lon="3.54478">
        <ele>142.77</ele>
        <time>2023-02-13T12:25:59Z</time>
      </trkpt>
      <trkpt lat="43.73624" lon="3.54475">
        <ele>143.44</ele>
        <time>2023-02-13T12:26:17Z</time>
      </trkpt>
      <trkpt lat="43.73623" lon="3.54461">
        <ele>145.25</ele>
        <time>2023-02-13T12:26:35Z</time>
      </trkpt>
      <trkpt lat="43.7362" lon="3.54442">
        <ele>146.99</ele>
        <time>2023-02-13T12:26:50Z</time>
      </trkpt>
      <trkpt lat="43.73619" lon="3.54424">
        <ele>148.36</ele>
        <time>2023-02-13T12:27:07Z</time>
      </trkpt>
      <trkpt lat="43.73617" lon="3.54402">
        <ele>150.64</ele>
        <time>2023-02-13T12:27:27Z</time>
      </trkpt>
      <trkpt lat="43.73614" lon="3.54384">
        <ele>152.11</ele>
        <time>2023-02-13T12:27:46Z</time>
      </trkpt>
      <trkpt lat="43.73613" lon="3.54354">
        <ele>154.22</ele>
        <time>2023-02-13T12:28:05Z</time>
      </trkpt>
      <trkpt lat="43.73619" lon="3.54334">
        <ele>156.25</ele>
        <time>2023-02-13T12:28:24Z</time>
      </trkpt>
      <trkpt lat="43.73634" lon="3.54317">
        <ele>157.52</ele>
        <time>2023-02-13T12:28:44Z</time>
      </trkpt>
      <trkpt lat="43.73642" lon="3.54296">
        <ele>159.81</ele>
        <time>2023-02-13T12:29:01Z</time>
      </trkpt>
      <trkpt lat="43.73648" lon="3.54277">
        <ele>161.25</ele>
        <time>2023-02-13T12:29:18Z</time>
      </trkpt>
      <trkpt lat="43.7365" lon="3.54258">
        <ele>162.83</ele>
        <time>2023-02-13T12:29:34Z</time>
      </trkpt>
      <trkpt lat="43.73648" lon="3.54238">
        <ele>164.27</ele>
        <time>2023-02-13T12:29:51Z</time>
      </trkpt>
      <trkpt lat="43.73639" lon="3.54215">
        <ele>165.92</ele>
        <time>2023-02-13T12:30:08Z</time>
      </trkpt>
      <trkpt lat="43.73632" lon="3.542">
        <ele>167.61</ele>
        <time>2023-02-13T12:30:23Z</time>
      </trkpt>
      <trkpt lat="43.73627" lon="3.54181">
        <ele>170.19</ele>
        <time>2023-02-13T12:30:44Z</time>
      </trkpt>
      <trkpt lat="43.73623" lon="3.54166">
        <ele>172.99</ele>
        <time>2023-02-13T12:31:02Z</time>
      </trkpt>
      <trkpt lat="43.73625" lon="3.54154">
        <ele>172.57</ele>
        <time>2023-02-13T12:31:26Z</time>
      </trkpt>
      <trkpt lat="43.73618" lon="3.54146">
        <ele>174.5</ele>
        <time>2023-02-13T12:31:44Z</time>
      </trkpt>
      <trkpt lat="43.73615" lon="3.54167">
        <ele>176.14</ele>
        <time>2023-02-13T12:32:04Z</time>
      </trkpt>
      <trkpt lat="43.73612" lon="3.5419">
        <ele>178.5</ele>
        <time>2023-02-13T12:32:23Z</time>
      </trkpt>
      <trkpt lat="43.73613" lon="3.54211">
        <ele>179.98</ele>
        <time>2023-02-13T12:32:42Z</time>
      </trkpt>
      <trkpt lat="43.7361" lon="3.54229">
        <ele>182.31</ele>
        <time>2023-02-13T12:33:02Z</time>
      </trkpt>
      <trkpt lat="43.73603" lon="3.54253">
        <ele>184.53</ele>
        <time>2023-02-13T12:33:21Z</time>
      </trkpt>
      <trkpt lat="43.73602" lon="3.54256">
        <ele>185.13</ele>
        <time>2023-02-13T12:33:40Z</time>
      </trkpt>
      <trkpt lat="43.73602" lon="3.54254">
        <ele>184.97</ele>
        <time>2023-02-13T12:34:09Z</time>
      </trkpt>
      <trkpt lat="43.736" lon="3.54251">
        <ele>186.29</ele>
        <time>2023-02-13T12:34:12Z</time>
      </trkpt>
      <trkpt lat="43.73596" lon="3.54239">
        <ele>187.11</ele>
        <time>2023-02-13T12:34:24Z</time>
      </trkpt>
      <trkpt lat="43.7359" lon="3.54228">
        <ele>188.96</ele>
        <time>2023-02-13T12:34:33Z</time>
      </trkpt>
      <trkpt lat="43.73579" lon="3.54211">
        <ele>191.35</ele>
        <time>2023-02-13T12:34:51Z</time>
      </trkpt>
      <trkpt lat="43.73573" lon="3.54196">
        <ele>192.76</ele>
        <time>2023-02-13T12:35:06Z</time>
      </trkpt>
      <trkpt lat="43.73568" lon="3.5418">
        <ele>195.02</ele>
        <time>2023-02-13T12:35:23Z</time>
      </trkpt>
      <trkpt lat="43.73561" lon="3.54165">
        <ele>197.32</ele>
        <time>2023-02-13T12:35:41Z</time>
      </trkpt>
      <trkpt lat="43.73555" lon="3.54152">
        <ele>198.76</ele>
        <time>2023-02-13T12:35:54Z</time>
      </trkpt>
      <trkpt lat="43.7355" lon="3.5414">
        <ele>201.21</ele>
        <time>2023-02-13T12:36:13Z</time>
      </trkpt>
      <trkpt lat="43.73543" lon="3.54134">
        <ele>203.51</ele>
        <time>2023-02-13T12:36:31Z</time>
      </trkpt>
      <trkpt lat="43.73547" lon="3.54131">
        <ele>202.98</ele>
        <time>2023-02-13T12:36:58Z</time>
      </trkpt>
      <trkpt lat="43.73536" lon="3.5412">
        <ele>204.52</ele>
        <time>2023-02-13T12:37:15Z</time>
      </trkpt>
      <trkpt lat="43.73533" lon="3.54097">
        <ele>205.1</ele>
        <time>2023-02-13T12:37:33Z</time>
      </trkpt>
      <trkpt lat="43.73525" lon="3.54077">
        <ele>206.46</ele>
        <time>2023-02-13T12:37:51Z</time>
      </trkpt>
      <trkpt lat="43.73522" lon="3.54059">
        <ele>207.05</ele>
        <time>2023-02-13T12:38:12Z</time>
      </trkpt>
      <trkpt lat="43.73521" lon="3.54048">
        <ele>206.94</ele>
        <time>2023-02-13T12:38:19Z</time>
      </trkpt>
      <trkpt lat="43.7352" lon="3.54027">
        <ele>209.28</ele>
        <time>2023-02-13T12:38:37Z</time>
      </trkpt>
      <trkpt lat="43.73518" lon="3.54014">
        <ele>212.75</ele>
        <time>2023-02-13T12:38:51Z</time>
      </trkpt>
      <trkpt lat="43.73519" lon="3.53988">
        <ele>214.84</ele>
        <time>2023-02-13T12:39:14Z</time>
      </trkpt>
      <trkpt lat="43.73522" lon="3.53986">
        <ele>215.79</ele>
        <time>2023-02-13T12:39:22Z</time>
      </trkpt>
      <trkpt lat="43.73533" lon="3.53983">
        <ele>216.32</ele>
        <time>2023-02-13T12:39:39Z</time>
      </trkpt>
      <trkpt lat="43.73548" lon="3.53983">
        <ele>217.06</ele>
        <time>2023-02-13T12:39:55Z</time>
      </trkpt>
      <trkpt lat="43.73551" lon="3.53984">
        <ele>217.05</ele>
        <time>2023-02-13T12:39:59Z</time>
      </trkpt>
      <trkpt lat="43.73565" lon="3.53984">
        <ele>218.88</ele>
        <time>2023-02-13T12:40:15Z</time>
      </trkpt>
      <trkpt lat="43.73573" lon="3.53975">
        <ele>219.72</ele>
        <time>2023-02-13T12:40:30Z</time>
      </trkpt>
      <trkpt lat="43.73574" lon="3.53966">
        <ele>221.14</ele>
        <time>2023-02-13T12:40:47Z</time>
      </trkpt>
      <trkpt lat="43.73574" lon="3.53965">
        <ele>223.89</ele>
        <time>2023-02-13T12:40:53Z</time>
      </trkpt>
      <trkpt lat="43.73574" lon="3.53965">
        <ele>220.99</ele>
        <time>2023-02-13T12:40:56Z</time>
      </trkpt>
      <trkpt lat="43.73575" lon="3.53963">
        <ele>220.28</ele>
        <time>2023-02-13T12:41:15Z</time>
      </trkpt>
      <trkpt lat="43.73575" lon="3.53958">
        <ele>220.38</ele>
        <time>2023-02-13T12:41:39Z</time>
      </trkpt>
      <trkpt lat="43.73575" lon="3.53957">
        <ele>220.52</ele>
        <time>2023-02-13T12:42:12Z</time>
      </trkpt>
      <trkpt lat="43.73574" lon="3.53956">
        <ele>220.61</ele>
        <time>2023-02-13T12:42:37Z</time>
      </trkpt>
      <trkpt lat="43.73579" lon="3.53951">
        <ele>220.72</ele>
        <time>2023-02-13T12:43:02Z</time>
      </trkpt>
      <trkpt lat="43.73589" lon="3.53935">
        <ele>220.78</ele>
        <time>2023-02-13T12:43:21Z</time>
      </trkpt>
      <trkpt lat="43.73591" lon="3.53933">
        <ele>220.79</ele>
        <time>2023-02-13T12:43:23Z</time>
      </trkpt>
      <trkpt lat="43.73595" lon="3.53928">
        <ele>223.11</ele>
        <time>2023-02-13T12:43:28Z</time>
      </trkpt>
      <trkpt lat="43.73604" lon="3.5391">
        <ele>223.98</ele>
        <time>2023-02-13T12:43:43Z</time>
      </trkpt>
      <trkpt lat="43.73609" lon="3.53903">
        <ele>224.82</ele>
        <time>2023-02-13T12:43:49Z</time>
      </trkpt>
      <trkpt lat="43.73612" lon="3.53893">
        <ele>224.77</ele>
        <time>2023-02-13T12:43:57Z</time>
      </trkpt>
      <trkpt lat="43.73614" lon="3.53883">
        <ele>225.52</ele>
        <time>2023-02-13T12:44:04Z</time>
      </trkpt>
      <trkpt lat="43.73615" lon="3.53881">
        <ele>225.5</ele>
        <time>2023-02-13T12:44:06Z</time>
      </trkpt>
      <trkpt lat="43.73615" lon="3.53876">
        <ele>225.48</ele>
        <time>2023-02-13T12:44:09Z</time>
      </trkpt>
      <trkpt lat="43.73616" lon="3.53872">
        <ele>225.45</ele>
        <time>2023-02-13T12:44:12Z</time>
      </trkpt>
      <trkpt lat="43.73617" lon="3.53869">
        <ele>225.44</ele>
        <time>2023-02-13T12:44:14Z</time>
      </trkpt>
      <trkpt lat="43.73624" lon="3.53853">
        <ele>225.33</ele>
        <time>2023-02-13T12:44:27Z</time>
      </trkpt>
      <trkpt lat="43.73633" lon="3.53839">
        <ele>225.3</ele>
        <time>2023-02-13T12:44:42Z</time>
      </trkpt>
      <trkpt lat="43.73635" lon="3.53836">
        <ele>225.23</ele>
        <time>2023-02-13T12:44:59Z</time>
      </trkpt>
      <trkpt lat="43.73633" lon="3.53815">
        <ele>225.26</ele>
        <time>2023-02-13T12:45:14Z</time>
      </trkpt>
      <trkpt lat="43.7363" lon="3.53795">
        <ele>227.94</ele>
        <time>2023-02-13T12:45:30Z</time>
      </trkpt>
      <trkpt lat="43.73627" lon="3.53776">
        <ele>228.79</ele>
        <time>2023-02-13T12:45:45Z</time>
      </trkpt>
      <trkpt lat="43.73622" lon="3.53758">
        <ele>231.11</ele>
        <time>2023-02-13T12:46:00Z</time>
      </trkpt>
      <trkpt lat="43.73625" lon="3.53748">
        <ele>230.86</ele>
        <time>2023-02-13T12:46:21Z</time>
      </trkpt>
      <trkpt lat="43.73619" lon="3.53737">
        <ele>232.62</ele>
        <time>2023-02-13T12:46:36Z</time>
      </trkpt>
      <trkpt lat="43.73613" lon="3.53717">
        <ele>234.31</ele>
        <time>2023-02-13T12:46:52Z</time>
      </trkpt>
      <trkpt lat="43.73608" lon="3.53695">
        <ele>236.6</ele>
        <time>2023-02-13T12:47:10Z</time>
      </trkpt>
      <trkpt lat="43.73608" lon="3.53692">
        <ele>236.58</ele>
        <time>2023-02-13T12:47:12Z</time>
      </trkpt>
      <trkpt lat="43.73604" lon="3.53674">
        <ele>238.3</ele>
        <time>2023-02-13T12:47:26Z</time>
      </trkpt>
      <trkpt lat="43.73598" lon="3.53659">
        <ele>239.75</ele>
        <time>2023-02-13T12:47:42Z</time>
      </trkpt>
      <trkpt lat="43.73591" lon="3.53637">
        <ele>242</ele>
        <time>2023-02-13T12:48:01Z</time>
      </trkpt>
      <trkpt lat="43.73586" lon="3.53616">
        <ele>243.96</ele>
        <time>2023-02-13T12:48:19Z</time>
      </trkpt>
      <trkpt lat="43.73588" lon="3.53597">
        <ele>243.67</ele>
        <time>2023-02-13T12:48:31Z</time>
      </trkpt>
      <trkpt lat="43.73587" lon="3.53595">
        <ele>243.54</ele>
        <time>2023-02-13T12:48:37Z</time>
      </trkpt>
      <trkpt lat="43.7358" lon="3.53585">
        <ele>244.3</ele>
        <time>2023-02-13T12:48:46Z</time>
      </trkpt>
      <trkpt lat="43.73582" lon="3.5356">
        <ele>244.66</ele>
        <time>2023-02-13T12:49:04Z</time>
      </trkpt>
      <trkpt lat="43.73586" lon="3.53541">
        <ele>245.09</ele>
        <time>2023-02-13T12:49:25Z</time>
      </trkpt>
      <trkpt lat="43.73579" lon="3.53541">
        <ele>244.75</ele>
        <time>2023-02-13T12:49:52Z</time>
      </trkpt>
      <trkpt lat="43.73578" lon="3.53541">
        <ele>244.67</ele>
        <time>2023-02-13T12:49:59Z</time>
      </trkpt>
      <trkpt lat="43.73557" lon="3.53539">
        <ele>244.39</ele>
        <time>2023-02-13T12:50:30Z</time>
      </trkpt>
      <trkpt lat="43.73567" lon="3.53519">
        <ele>245.91</ele>
        <time>2023-02-13T12:50:44Z</time>
      </trkpt>
      <trkpt lat="43.7358" lon="3.5351">
        <ele>246.57</ele>
        <time>2023-02-13T12:50:59Z</time>
      </trkpt>
      <trkpt lat="43.73591" lon="3.53489">
        <ele>247.3</ele>
        <time>2023-02-13T12:51:24Z</time>
      </trkpt>
      <trkpt lat="43.73602" lon="3.53467">
        <ele>248.86</ele>
        <time>2023-02-13T12:51:37Z</time>
      </trkpt>
      <trkpt lat="43.73608" lon="3.53458">
        <ele>248.81</ele>
        <time>2023-02-13T12:51:43Z</time>
      </trkpt>
      <trkpt lat="43.73611" lon="3.53452">
        <ele>248.81</ele>
        <time>2023-02-13T12:51:48Z</time>
      </trkpt>
      <trkpt lat="43.73612" lon="3.53448">
        <ele>248.81</ele>
        <time>2023-02-13T12:51:51Z</time>
      </trkpt>
      <trkpt lat="43.73612" lon="3.53443">
        <ele>248.81</ele>
        <time>2023-02-13T12:51:55Z</time>
      </trkpt>
      <trkpt lat="43.73602" lon="3.53425">
        <ele>248.82</ele>
        <time>2023-02-13T12:52:09Z</time>
      </trkpt>
      <trkpt lat="43.73595" lon="3.53403">
        <ele>248.78</ele>
        <time>2023-02-13T12:52:24Z</time>
      </trkpt>
      <trkpt lat="43.73592" lon="3.53399">
        <ele>248.77</ele>
        <time>2023-02-13T12:52:28Z</time>
      </trkpt>
      <trkpt lat="43.7359" lon="3.53372">
        <ele>245.58</ele>
        <time>2023-02-13T12:52:46Z</time>
      </trkpt>
      <trkpt lat="43.7359" lon="3.53371">
        <ele>250.69</ele>
        <time>2023-02-13T12:52:47Z</time>
      </trkpt>
      <trkpt lat="43.73589" lon="3.53367">
        <ele>252.01</ele>
        <time>2023-02-13T12:52:49Z</time>
      </trkpt>
      <trkpt lat="43.73588" lon="3.53341">
        <ele>251.81</ele>
        <time>2023-02-13T12:53:08Z</time>
      </trkpt>
      <trkpt lat="43.7359" lon="3.53327">
        <ele>252.6</ele>
        <time>2023-02-13T12:53:17Z</time>
      </trkpt>
      <trkpt lat="43.73597" lon="3.53311">
        <ele>253.28</ele>
        <time>2023-02-13T12:53:29Z</time>
      </trkpt>
      <trkpt lat="43.736" lon="3.53306">
        <ele>254</ele>
        <time>2023-02-13T12:53:33Z</time>
      </trkpt>
      <trkpt lat="43.73613" lon="3.53287">
        <ele>255.45</ele>
        <time>2023-02-13T12:53:49Z</time>
      </trkpt>
      <trkpt lat="43.7362" lon="3.53269">
        <ele>257.7</ele>
        <time>2023-02-13T12:54:04Z</time>
      </trkpt>
      <trkpt lat="43.73625" lon="3.53254">
        <ele>259.28</ele>
        <time>2023-02-13T12:54:17Z</time>
      </trkpt>
      <trkpt lat="43.73625" lon="3.53238">
        <ele>260.87</ele>
        <time>2023-02-13T12:54:31Z</time>
      </trkpt>
      <trkpt lat="43.73627" lon="3.53223">
        <ele>262.5</ele>
        <time>2023-02-13T12:54:44Z</time>
      </trkpt>
      <trkpt lat="43.73628" lon="3.53215">
        <ele>263.37</ele>
        <time>2023-02-13T12:54:49Z</time>
      </trkpt>
      <trkpt lat="43.73632" lon="3.53189">
        <ele>265.75</ele>
        <time>2023-02-13T12:55:05Z</time>
      </trkpt>
      <trkpt lat="43.73637" lon="3.5317">
        <ele>267.24</ele>
        <time>2023-02-13T12:55:21Z</time>
      </trkpt>
      <trkpt lat="43.73642" lon="3.5315">
        <ele>267.23</ele>
        <time>2023-02-13T12:55:38Z</time>
      </trkpt>
      <trkpt lat="43.7365" lon="3.53133">
        <ele>268.81</ele>
        <time>2023-02-13T12:55:54Z</time>
      </trkpt>
      <trkpt lat="43.73658" lon="3.53123">
        <ele>269.62</ele>
        <time>2023-02-13T12:56:09Z</time>
      </trkpt>
      <trkpt lat="43.73657" lon="3.53122">
        <ele>269.69</ele>
        <time>2023-02-13T12:56:29Z</time>
      </trkpt>
      <trkpt lat="43.73659" lon="3.53115">
        <ele>270.62</ele>
        <time>2023-02-13T12:56:47Z</time>
      </trkpt>
      <trkpt lat="43.73669" lon="3.53105">
        <ele>274.12</ele>
        <time>2023-02-13T12:57:00Z</time>
      </trkpt>
      <trkpt lat="43.73682" lon="3.53086">
        <ele>277</ele>
        <time>2023-02-13T12:57:19Z</time>
      </trkpt>
      <trkpt lat="43.7369" lon="3.5308">
        <ele>277.9</ele>
        <time>2023-02-13T12:57:26Z</time>
      </trkpt>
      <trkpt lat="43.73703" lon="3.53079">
        <ele>278.69</ele>
        <time>2023-02-13T12:57:36Z</time>
      </trkpt>
      <trkpt lat="43.7372" lon="3.53072">
        <ele>278.71</ele>
        <time>2023-02-13T12:57:52Z</time>
      </trkpt>
      <trkpt lat="43.73729" lon="3.53068">
        <ele>278.78</ele>
        <time>2023-02-13T12:57:59Z</time>
      </trkpt>
      <trkpt lat="43.73746" lon="3.53068">
        <ele>278.97</ele>
        <time>2023-02-13T12:58:14Z</time>
      </trkpt>
      <trkpt lat="43.73757" lon="3.53069">
        <ele>279.98</ele>
        <time>2023-02-13T12:58:25Z</time>
      </trkpt>
      <trkpt lat="43.73764" lon="3.53066">
        <ele>281.87</ele>
        <time>2023-02-13T12:58:38Z</time>
      </trkpt>
      <trkpt lat="43.73766" lon="3.53063">
        <ele>282.41</ele>
        <time>2023-02-13T12:59:12Z</time>
      </trkpt>
      <trkpt lat="43.73773" lon="3.53054">
        <ele>285.53</ele>
        <time>2023-02-13T12:59:26Z</time>
      </trkpt>
      <trkpt lat="43.73778" lon="3.53046">
        <ele>287.45</ele>
        <time>2023-02-13T12:59:36Z</time>
      </trkpt>
      <trkpt lat="43.73787" lon="3.53042">
        <ele>290.4</ele>
        <time>2023-02-13T12:59:51Z</time>
      </trkpt>
      <trkpt lat="43.73794" lon="3.53034">
        <ele>293.26</ele>
        <time>2023-02-13T13:00:07Z</time>
      </trkpt>
      <trkpt lat="43.73803" lon="3.53029">
        <ele>296.82</ele>
        <time>2023-02-13T13:00:27Z</time>
      </trkpt>
      <trkpt lat="43.73814" lon="3.53034">
        <ele>300.41</ele>
        <time>2023-02-13T13:00:46Z</time>
      </trkpt>
      <trkpt lat="43.73819" lon="3.53029">
        <ele>301.37</ele>
        <time>2023-02-13T13:01:03Z</time>
      </trkpt>
      <trkpt lat="43.73818" lon="3.53028">
        <ele>301.44</ele>
        <time>2023-02-13T13:01:09Z</time>
      </trkpt>
      <trkpt lat="43.73804" lon="3.53028">
        <ele>301.64</ele>
        <time>2023-02-13T13:01:32Z</time>
      </trkpt>
      <trkpt lat="43.73804" lon="3.5302">
        <ele>301.72</ele>
        <time>2023-02-13T13:01:40Z</time>
      </trkpt>
      <trkpt lat="43.73809" lon="3.53012">
        <ele>301.8</ele>
        <time>2023-02-13T13:01:48Z</time>
      </trkpt>
      <trkpt lat="43.73811" lon="3.53009">
        <ele>301.82</ele>
        <time>2023-02-13T13:01:50Z</time>
      </trkpt>
      <trkpt lat="43.7381" lon="3.53003">
        <ele>304.38</ele>
        <time>2023-02-13T13:02:01Z</time>
      </trkpt>
      <trkpt lat="43.73803" lon="3.52998">
        <ele>308.02</ele>
        <time>2023-02-13T13:02:17Z</time>
      </trkpt>
      <trkpt lat="43.73803" lon="3.52988">
        <ele>309.71</ele>
        <time>2023-02-13T13:02:35Z</time>
      </trkpt>
      <trkpt lat="43.73797" lon="3.52984">
        <ele>311.46</ele>
        <time>2023-02-13T13:02:59Z</time>
      </trkpt>
      <trkpt lat="43.73814" lon="3.52991">
        <ele>314.21</ele>
        <time>2023-02-13T13:03:16Z</time>
      </trkpt>
      <trkpt lat="43.73817" lon="3.52987">
        <ele>316.81</ele>
        <time>2023-02-13T13:03:32Z</time>
      </trkpt>
      <trkpt lat="43.73807" lon="3.52981">
        <ele>319.31</ele>
        <time>2023-02-13T13:03:51Z</time>
      </trkpt>
      <trkpt lat="43.73801" lon="3.5298">
        <ele>320.86</ele>
        <time>2023-02-13T13:04:08Z</time>
      </trkpt>
      <trkpt lat="43.7381" lon="3.52979">
        <ele>320.82</ele>
        <time>2023-02-13T13:04:18Z</time>
      </trkpt>
      <trkpt lat="43.73805" lon="3.52989">
        <ele>320.85</ele>
        <time>2023-02-13T13:04:38Z</time>
      </trkpt>
      <trkpt lat="43.73789" lon="3.5299">
        <ele>322.74</ele>
        <time>2023-02-13T13:04:58Z</time>
      </trkpt>
      <trkpt lat="43.73786" lon="3.52988">
        <ele>323.58</ele>
        <time>2023-02-13T13:05:02Z</time>
      </trkpt>
      <trkpt lat="43.73773" lon="3.52976">
        <ele>327.28</ele>
        <time>2023-02-13T13:05:20Z</time>
      </trkpt>
      <trkpt lat="43.73771" lon="3.52969">
        <ele>328.87</ele>
        <time>2023-02-13T13:05:29Z</time>
      </trkpt>
      <trkpt lat="43.73769" lon="3.52964">
        <ele>329.76</ele>
        <time>2023-02-13T13:05:36Z</time>
      </trkpt>
      <trkpt lat="43.73769" lon="3.5296">
        <ele>330.59</ele>
        <time>2023-02-13T13:05:39Z</time>
      </trkpt>
      <trkpt lat="43.7377" lon="3.52966">
        <ele>330.55</ele>
        <time>2023-02-13T13:06:03Z</time>
      </trkpt>
      <trkpt lat="43.73773" lon="3.52967">
        <ele>330.63</ele>
        <time>2023-02-13T13:06:23Z</time>
      </trkpt>
      <trkpt lat="43.73772" lon="3.52967">
        <ele>330.72</ele>
        <time>2023-02-13T13:06:41Z</time>
      </trkpt>
      <trkpt lat="43.73773" lon="3.52969">
        <ele>331.68</ele>
        <time>2023-02-13T13:07:12Z</time>
      </trkpt>
      <trkpt lat="43.73772" lon="3.5297">
        <ele>329.25</ele>
        <time>2023-02-13T13:07:14Z</time>
      </trkpt>
      <trkpt lat="43.73772" lon="3.5297">
        <ele>332.82</ele>
        <time>2023-02-13T13:07:15Z</time>
      </trkpt>
      <trkpt lat="43.73773" lon="3.5297">
        <ele>332.82</ele>
        <time>2023-02-13T13:07:16Z</time>
      </trkpt>
      <trkpt lat="43.73775" lon="3.52972">
        <ele>327.96</ele>
        <time>2023-02-13T13:07:35Z</time>
      </trkpt>
      <trkpt lat="43.73775" lon="3.52972">
        <ele>332.37</ele>
        <time>2023-02-13T13:07:36Z</time>
      </trkpt>
      <trkpt lat="43.73775" lon="3.5297">
        <ele>331.12</ele>
        <time>2023-02-13T13:07:51Z</time>
      </trkpt>
      <trkpt lat="43.73779" lon="3.5297">
        <ele>331.33</ele>
        <time>2023-02-13T13:08:22Z</time>
      </trkpt>
      <trkpt lat="43.7378" lon="3.5297">
        <ele>333.62</ele>
        <time>2023-02-13T13:08:25Z</time>
      </trkpt>
      <trkpt lat="43.73786" lon="3.52973">
        <ele>336.23</ele>
        <time>2023-02-13T13:08:40Z</time>
      </trkpt>
      <trkpt lat="43.73798" lon="3.52971">
        <ele>337.08</ele>
        <time>2023-02-13T13:08:55Z</time>
      </trkpt>
      <trkpt lat="43.73805" lon="3.52975">
        <ele>334.82</ele>
        <time>2023-02-13T13:09:00Z</time>
      </trkpt>
      <trkpt lat="43.73818" lon="3.52987">
        <ele>334.89</ele>
        <time>2023-02-13T13:09:10Z</time>
      </trkpt>
      <trkpt lat="43.73827" lon="3.52991">
        <ele>335</ele>
        <time>2023-02-13T13:09:24Z</time>
      </trkpt>
      <trkpt lat="43.73832" lon="3.52984">
        <ele>335.14</ele>
        <time>2023-02-13T13:09:45Z</time>
      </trkpt>
      <trkpt lat="43.73834" lon="3.52986">
        <ele>337.58</ele>
        <time>2023-02-13T13:09:48Z</time>
      </trkpt>
      <trkpt lat="43.73832" lon="3.53003">
        <ele>341.19</ele>
        <time>2023-02-13T13:10:02Z</time>
      </trkpt>
      <trkpt lat="43.73831" lon="3.5302">
        <ele>343.7</ele>
        <time>2023-02-13T13:10:18Z</time>
      </trkpt>
      <trkpt lat="43.73831" lon="3.53022">
        <ele>343.72</ele>
        <time>2023-02-13T13:10:20Z</time>
      </trkpt>
      <trkpt lat="43.73831" lon="3.53027">
        <ele>343.71</ele>
        <time>2023-02-13T13:10:25Z</time>
      </trkpt>
      <trkpt lat="43.73835" lon="3.53037">
        <ele>344.57</ele>
        <time>2023-02-13T13:10:40Z</time>
      </trkpt>
      <trkpt lat="43.73836" lon="3.53038">
        <ele>344.63</ele>
        <time>2023-02-13T13:11:12Z</time>
      </trkpt>
      <trkpt lat="43.73837" lon="3.53037">
        <ele>344.69</ele>
        <time>2023-02-13T13:11:41Z</time>
      </trkpt>
      <trkpt lat="43.7384" lon="3.53039">
        <ele>344.73</ele>
        <time>2023-02-13T13:12:01Z</time>
      </trkpt>
      <trkpt lat="43.73848" lon="3.53046">
        <ele>344.75</ele>
        <time>2023-02-13T13:12:17Z</time>
      </trkpt>
      <trkpt lat="43.73849" lon="3.53046">
        <ele>342.45</ele>
        <time>2023-02-13T13:12:19Z</time>
      </trkpt>
      <trkpt lat="43.73852" lon="3.53046">
        <ele>341.61</ele>
        <time>2023-02-13T13:12:27Z</time>
      </trkpt>
      <trkpt lat="43.7386" lon="3.53045">
        <ele>339.89</ele>
        <time>2023-02-13T13:12:37Z</time>
      </trkpt>
      <trkpt lat="43.73867" lon="3.53043">
        <ele>338.27</ele>
        <time>2023-02-13T13:12:46Z</time>
      </trkpt>
      <trkpt lat="43.7387" lon="3.53042">
        <ele>337.42</ele>
        <time>2023-02-13T13:12:52Z</time>
      </trkpt>
      <trkpt lat="43.73881" lon="3.53039">
        <ele>335.78</ele>
        <time>2023-02-13T13:13:03Z</time>
      </trkpt>
      <trkpt lat="43.73891" lon="3.53037">
        <ele>333.95</ele>
        <time>2023-02-13T13:13:14Z</time>
      </trkpt>
      <trkpt lat="43.73903" lon="3.53037">
        <ele>332.23</ele>
        <time>2023-02-13T13:13:30Z</time>
      </trkpt>
      <trkpt lat="43.7392" lon="3.53037">
        <ele>329.76</ele>
        <time>2023-02-13T13:13:47Z</time>
      </trkpt>
      <trkpt lat="43.73925" lon="3.53035">
        <ele>329.73</ele>
        <time>2023-02-13T13:13:52Z</time>
      </trkpt>
      <trkpt lat="43.73929" lon="3.53031">
        <ele>328.95</ele>
        <time>2023-02-13T13:13:56Z</time>
      </trkpt>
      <trkpt lat="43.73938" lon="3.53016">
        <ele>329.15</ele>
        <time>2023-02-13T13:14:10Z</time>
      </trkpt>
      <trkpt lat="43.73938" lon="3.53015">
        <ele>329.14</ele>
        <time>2023-02-13T13:14:11Z</time>
      </trkpt>
      <trkpt lat="43.73941" lon="3.52992">
        <ele>326.76</ele>
        <time>2023-02-13T13:14:27Z</time>
      </trkpt>
      <trkpt lat="43.73941" lon="3.52991">
        <ele>326.75</ele>
        <time>2023-02-13T13:14:28Z</time>
      </trkpt>
      <trkpt lat="43.73941" lon="3.52981">
        <ele>326.7</ele>
        <time>2023-02-13T13:14:35Z</time>
      </trkpt>
      <trkpt lat="43.73939" lon="3.52971">
        <ele>325.1</ele>
        <time>2023-02-13T13:14:42Z</time>
      </trkpt>
      <trkpt lat="43.73939" lon="3.52959">
        <ele>324.25</ele>
        <time>2023-02-13T13:14:50Z</time>
      </trkpt>
      <trkpt lat="43.7394" lon="3.52947">
        <ele>322.47</ele>
        <time>2023-02-13T13:15:01Z</time>
      </trkpt>
      <trkpt lat="43.73941" lon="3.5294">
        <ele>322.43</ele>
        <time>2023-02-13T13:15:05Z</time>
      </trkpt>
      <trkpt lat="43.73939" lon="3.52934">
        <ele>322.4</ele>
        <time>2023-02-13T13:15:09Z</time>
      </trkpt>
      <trkpt lat="43.73939" lon="3.52931">
        <ele>322.37</ele>
        <time>2023-02-13T13:15:11Z</time>
      </trkpt>
      <trkpt lat="43.73937" lon="3.52911">
        <ele>321.46</ele>
        <time>2023-02-13T13:15:21Z</time>
      </trkpt>
      <trkpt lat="43.73941" lon="3.52895">
        <ele>321.31</ele>
        <time>2023-02-13T13:15:31Z</time>
      </trkpt>
      <trkpt lat="43.73946" lon="3.52875">
        <ele>321.07</ele>
        <time>2023-02-13T13:15:45Z</time>
      </trkpt>
      <trkpt lat="43.73946" lon="3.52865">
        <ele>320.94</ele>
        <time>2023-02-13T13:15:51Z</time>
      </trkpt>
      <trkpt lat="43.73946" lon="3.52862">
        <ele>320.91</ele>
        <time>2023-02-13T13:15:53Z</time>
      </trkpt>
      <trkpt lat="43.73946" lon="3.52847">
        <ele>319.82</ele>
        <time>2023-02-13T13:16:07Z</time>
      </trkpt>
      <trkpt lat="43.73947" lon="3.52823">
        <ele>317.82</ele>
        <time>2023-02-13T13:16:21Z</time>
      </trkpt>
      <trkpt lat="43.73949" lon="3.52817">
        <ele>316.86</ele>
        <time>2023-02-13T13:16:26Z</time>
      </trkpt>
      <trkpt lat="43.73953" lon="3.52809">
        <ele>316.76</ele>
        <time>2023-02-13T13:16:31Z</time>
      </trkpt>
      <trkpt lat="43.73956" lon="3.52799">
        <ele>315.05</ele>
        <time>2023-02-13T13:16:39Z</time>
      </trkpt>
      <trkpt lat="43.73958" lon="3.52795">
        <ele>315.02</ele>
        <time>2023-02-13T13:16:42Z</time>
      </trkpt>
      <trkpt lat="43.73963" lon="3.52776">
        <ele>313.13</ele>
        <time>2023-02-13T13:16:56Z</time>
      </trkpt>
      <trkpt lat="43.73966" lon="3.52764">
        <ele>312.11</ele>
        <time>2023-02-13T13:17:08Z</time>
      </trkpt>
      <trkpt lat="43.73967" lon="3.52751">
        <ele>311.34</ele>
        <time>2023-02-13T13:17:16Z</time>
      </trkpt>
      <trkpt lat="43.73967" lon="3.52747">
        <ele>311.33</ele>
        <time>2023-02-13T13:17:18Z</time>
      </trkpt>
      <trkpt lat="43.73967" lon="3.52734">
        <ele>310.44</ele>
        <time>2023-02-13T13:17:25Z</time>
      </trkpt>
      <trkpt lat="43.73967" lon="3.52725">
        <ele>310.43</ele>
        <time>2023-02-13T13:17:30Z</time>
      </trkpt>
      <trkpt lat="43.73965" lon="3.52717">
        <ele>309.57</ele>
        <time>2023-02-13T13:17:35Z</time>
      </trkpt>
      <trkpt lat="43.73964" lon="3.52694">
        <ele>308.81</ele>
        <time>2023-02-13T13:17:48Z</time>
      </trkpt>
      <trkpt lat="43.73959" lon="3.52672">
        <ele>307.2</ele>
        <time>2023-02-13T13:18:01Z</time>
      </trkpt>
      <trkpt lat="43.73955" lon="3.52659">
        <ele>307.23</ele>
        <time>2023-02-13T13:18:09Z</time>
      </trkpt>
      <trkpt lat="43.73952" lon="3.52653">
        <ele>307.24</ele>
        <time>2023-02-13T13:18:14Z</time>
      </trkpt>
      <trkpt lat="43.73953" lon="3.5264">
        <ele>307.27</ele>
        <time>2023-02-13T13:18:22Z</time>
      </trkpt>
      <trkpt lat="43.73951" lon="3.52627">
        <ele>307.31</ele>
        <time>2023-02-13T13:18:31Z</time>
      </trkpt>
      <trkpt lat="43.73943" lon="3.52611">
        <ele>304.07</ele>
        <time>2023-02-13T13:18:42Z</time>
      </trkpt>
      <trkpt lat="43.73942" lon="3.52609">
        <ele>307.32</ele>
        <time>2023-02-13T13:18:44Z</time>
      </trkpt>
      <trkpt lat="43.73933" lon="3.526">
        <ele>307.9</ele>
        <time>2023-02-13T13:18:56Z</time>
      </trkpt>
      <trkpt lat="43.7393" lon="3.52597">
        <ele>305.55</ele>
        <time>2023-02-13T13:18:59Z</time>
      </trkpt>
      <trkpt lat="43.73916" lon="3.52576">
        <ele>304.69</ele>
        <time>2023-02-13T13:19:15Z</time>
      </trkpt>
      <trkpt lat="43.73928" lon="3.52564">
        <ele>302.91</ele>
        <time>2023-02-13T13:19:29Z</time>
      </trkpt>
      <trkpt lat="43.73937" lon="3.52557">
        <ele>302.89</ele>
        <time>2023-02-13T13:19:37Z</time>
      </trkpt>
      <trkpt lat="43.73944" lon="3.52536">
        <ele>302.86</ele>
        <time>2023-02-13T13:19:51Z</time>
      </trkpt>
      <trkpt lat="43.73944" lon="3.52532">
        <ele>301.96</ele>
        <time>2023-02-13T13:19:54Z</time>
      </trkpt>
      <trkpt lat="43.73943" lon="3.52523">
        <ele>301.98</ele>
        <time>2023-02-13T13:19:59Z</time>
      </trkpt>
      <trkpt lat="43.73938" lon="3.5251">
        <ele>301.95</ele>
        <time>2023-02-13T13:20:08Z</time>
      </trkpt>
      <trkpt lat="43.73933" lon="3.52503">
        <ele>297.73</ele>
        <time>2023-02-13T13:20:14Z</time>
      </trkpt>
      <trkpt lat="43.73933" lon="3.52502">
        <ele>301.24</ele>
        <time>2023-02-13T13:20:15Z</time>
      </trkpt>
      <trkpt lat="43.73933" lon="3.52493">
        <ele>301.28</ele>
        <time>2023-02-13T13:20:20Z</time>
      </trkpt>
      <trkpt lat="43.73934" lon="3.52485">
        <ele>301.21</ele>
        <time>2023-02-13T13:20:24Z</time>
      </trkpt>
      <trkpt lat="43.73935" lon="3.52481">
        <ele>301.21</ele>
        <time>2023-02-13T13:20:27Z</time>
      </trkpt>
      <trkpt lat="43.73934" lon="3.52448">
        <ele>298.92</ele>
        <time>2023-02-13T13:20:44Z</time>
      </trkpt>
      <trkpt lat="43.73934" lon="3.52447">
        <ele>298.93</ele>
        <time>2023-02-13T13:20:45Z</time>
      </trkpt>
      <trkpt lat="43.73935" lon="3.5243">
        <ele>298.99</ele>
        <time>2023-02-13T13:20:55Z</time>
      </trkpt>
      <trkpt lat="43.73928" lon="3.52408">
        <ele>298.34</ele>
        <time>2023-02-13T13:21:10Z</time>
      </trkpt>
      <trkpt lat="43.73926" lon="3.52403">
        <ele>297.46</ele>
        <time>2023-02-13T13:21:14Z</time>
      </trkpt>
      <trkpt lat="43.73926" lon="3.52396">
        <ele>297.54</ele>
        <time>2023-02-13T13:21:18Z</time>
      </trkpt>
      <trkpt lat="43.73926" lon="3.52369">
        <ele>295.97</ele>
        <time>2023-02-13T13:21:34Z</time>
      </trkpt>
      <trkpt lat="43.73924" lon="3.52349">
        <ele>296.04</ele>
        <time>2023-02-13T13:21:46Z</time>
      </trkpt>
      <trkpt lat="43.73925" lon="3.52343">
        <ele>295.2</ele>
        <time>2023-02-13T13:21:50Z</time>
      </trkpt>
      <trkpt lat="43.73926" lon="3.52332">
        <ele>295.25</ele>
        <time>2023-02-13T13:21:57Z</time>
      </trkpt>
      <trkpt lat="43.73929" lon="3.52328">
        <ele>293.74</ele>
        <time>2023-02-13T13:22:01Z</time>
      </trkpt>
      <trkpt lat="43.73934" lon="3.52316">
        <ele>293.76</ele>
        <time>2023-02-13T13:22:10Z</time>
      </trkpt>
      <trkpt lat="43.73935" lon="3.52309">
        <ele>293.75</ele>
        <time>2023-02-13T13:22:15Z</time>
      </trkpt>
      <trkpt lat="43.73944" lon="3.52296">
        <ele>293.8</ele>
        <time>2023-02-13T13:22:26Z</time>
      </trkpt>
      <trkpt lat="43.73956" lon="3.52277">
        <ele>292.38</ele>
        <time>2023-02-13T13:22:43Z</time>
      </trkpt>
      <trkpt lat="43.73965" lon="3.52261">
        <ele>292.48</ele>
        <time>2023-02-13T13:22:55Z</time>
      </trkpt>
      <trkpt lat="43.73971" lon="3.52254">
        <ele>292.51</ele>
        <time>2023-02-13T13:23:02Z</time>
      </trkpt>
      <trkpt lat="43.73979" lon="3.52234">
        <ele>292.63</ele>
        <time>2023-02-13T13:23:18Z</time>
      </trkpt>
      <trkpt lat="43.73983" lon="3.52225">
        <ele>292.64</ele>
        <time>2023-02-13T13:23:24Z</time>
      </trkpt>
      <trkpt lat="43.73986" lon="3.52216">
        <ele>292.68</ele>
        <time>2023-02-13T13:23:30Z</time>
      </trkpt>
      <trkpt lat="43.73987" lon="3.5221">
        <ele>285.36</ele>
        <time>2023-02-13T13:23:34Z</time>
      </trkpt>
      <trkpt lat="43.73987" lon="3.52209">
        <ele>293.64</ele>
        <time>2023-02-13T13:23:35Z</time>
      </trkpt>
      <trkpt lat="43.73991" lon="3.52188">
        <ele>293.63</ele>
        <time>2023-02-13T13:23:48Z</time>
      </trkpt>
      <trkpt lat="43.73993" lon="3.52167">
        <ele>293.62</ele>
        <time>2023-02-13T13:23:59Z</time>
      </trkpt>
      <trkpt lat="43.73994" lon="3.52151">
        <ele>293.65</ele>
        <time>2023-02-13T13:24:09Z</time>
      </trkpt>
      <trkpt lat="43.73996" lon="3.52138">
        <ele>293.65</ele>
        <time>2023-02-13T13:24:17Z</time>
      </trkpt>
      <trkpt lat="43.73997" lon="3.52131">
        <ele>293.65</ele>
        <time>2023-02-13T13:24:22Z</time>
      </trkpt>
      <trkpt lat="43.73998" lon="3.52115">
        <ele>293.6</ele>
        <time>2023-02-13T13:24:32Z</time>
      </trkpt>
      <trkpt lat="43.74" lon="3.52097">
        <ele>293.52</ele>
        <time>2023-02-13T13:24:45Z</time>
      </trkpt>
      <trkpt lat="43.74001" lon="3.52094">
        <ele>293.51</ele>
        <time>2023-02-13T13:24:47Z</time>
      </trkpt>
      <trkpt lat="43.74003" lon="3.52084">
        <ele>293.44</ele>
        <time>2023-02-13T13:24:54Z</time>
      </trkpt>
      <trkpt lat="43.74019" lon="3.5205">
        <ele>294.61</ele>
        <time>2023-02-13T13:25:17Z</time>
      </trkpt>
      <trkpt lat="43.74033" lon="3.52036">
        <ele>294.5</ele>
        <time>2023-02-13T13:25:32Z</time>
      </trkpt>
      <trkpt lat="43.74051" lon="3.52023">
        <ele>295.05</ele>
        <time>2023-02-13T13:25:52Z</time>
      </trkpt>
      <trkpt lat="43.74075" lon="3.51999">
        <ele>296.38</ele>
        <time>2023-02-13T13:26:15Z</time>
      </trkpt>
      <trkpt lat="43.7409" lon="3.51976">
        <ele>296.74</ele>
        <time>2023-02-13T13:26:37Z</time>
      </trkpt>
      <trkpt lat="43.741" lon="3.51961">
        <ele>297.3</ele>
        <time>2023-02-13T13:26:50Z</time>
      </trkpt>
      <trkpt lat="43.74108" lon="3.51931">
        <ele>297.68</ele>
        <time>2023-02-13T13:27:11Z</time>
      </trkpt>
      <trkpt lat="43.74104" lon="3.51903">
        <ele>298.82</ele>
        <time>2023-02-13T13:27:30Z</time>
      </trkpt>
      <trkpt lat="43.74097" lon="3.51874">
        <ele>299.16</ele>
        <time>2023-02-13T13:27:48Z</time>
      </trkpt>
      <trkpt lat="43.74076" lon="3.51864">
        <ele>298.68</ele>
        <time>2023-02-13T13:28:08Z</time>
      </trkpt>
      <trkpt lat="43.74063" lon="3.51837">
        <ele>299.94</ele>
        <time>2023-02-13T13:28:26Z</time>
      </trkpt>
      <trkpt lat="43.74061" lon="3.51808">
        <ele>301.11</ele>
        <time>2023-02-13T13:28:45Z</time>
      </trkpt>
      <trkpt lat="43.74075" lon="3.51779">
        <ele>301.19</ele>
        <time>2023-02-13T13:29:08Z</time>
      </trkpt>
      <trkpt lat="43.74088" lon="3.51751">
        <ele>303.79</ele>
        <time>2023-02-13T13:29:33Z</time>
      </trkpt>
      <trkpt lat="43.741" lon="3.51737">
        <ele>306.65</ele>
        <time>2023-02-13T13:29:54Z</time>
      </trkpt>
      <trkpt lat="43.74102" lon="3.51732">
        <ele>306.46</ele>
        <time>2023-02-13T13:30:00Z</time>
      </trkpt>
      <trkpt lat="43.74112" lon="3.51734">
        <ele>307.02</ele>
        <time>2023-02-13T13:30:04Z</time>
      </trkpt>
      <trkpt lat="43.74116" lon="3.51725">
        <ele>306.84</ele>
        <time>2023-02-13T13:30:13Z</time>
      </trkpt>
      <trkpt lat="43.74129" lon="3.51695">
        <ele>306.37</ele>
        <time>2023-02-13T13:30:35Z</time>
      </trkpt>
      <trkpt lat="43.74148" lon="3.5168">
        <ele>306.15</ele>
        <time>2023-02-13T13:30:52Z</time>
      </trkpt>
      <trkpt lat="43.74167" lon="3.51658">
        <ele>306.69</ele>
        <time>2023-02-13T13:31:16Z</time>
      </trkpt>
      <trkpt lat="43.74183" lon="3.51633">
        <ele>306.38</ele>
        <time>2023-02-13T13:31:38Z</time>
      </trkpt>
      <trkpt lat="43.74192" lon="3.5162">
        <ele>307.04</ele>
        <time>2023-02-13T13:31:54Z</time>
      </trkpt>
      <trkpt lat="43.74196" lon="3.51593">
        <ele>307.72</ele>
        <time>2023-02-13T13:32:14Z</time>
      </trkpt>
      <trkpt lat="43.74194" lon="3.51567">
        <ele>309.94</ele>
        <time>2023-02-13T13:32:34Z</time>
      </trkpt>
      <trkpt lat="43.74193" lon="3.51559">
        <ele>302.38</ele>
        <time>2023-02-13T13:32:46Z</time>
      </trkpt>
      <trkpt lat="43.74193" lon="3.51559">
        <ele>315.01</ele>
        <time>2023-02-13T13:32:47Z</time>
      </trkpt>
      <trkpt lat="43.74193" lon="3.51559">
        <ele>314.94</ele>
        <time>2023-02-13T13:32:48Z</time>
      </trkpt>
      <trkpt lat="43.74194" lon="3.51559">
        <ele>312.02</ele>
        <time>2023-02-13T13:32:51Z</time>
      </trkpt>
      <trkpt lat="43.7419" lon="3.51548">
        <ele>308.7</ele>
        <time>2023-02-13T13:33:09Z</time>
      </trkpt>
      <trkpt lat="43.7419" lon="3.51547">
        <ele>312.47</ele>
        <time>2023-02-13T13:33:10Z</time>
      </trkpt>
      <trkpt lat="43.74189" lon="3.51546">
        <ele>312.47</ele>
        <time>2023-02-13T13:33:11Z</time>
      </trkpt>
      <trkpt lat="43.74184" lon="3.51523">
        <ele>314.2</ele>
        <time>2023-02-13T13:33:30Z</time>
      </trkpt>
      <trkpt lat="43.74188" lon="3.51501">
        <ele>316.9</ele>
        <time>2023-02-13T13:33:46Z</time>
      </trkpt>
      <trkpt lat="43.74199" lon="3.51484">
        <ele>319.69</ele>
        <time>2023-02-13T13:34:05Z</time>
      </trkpt>
      <trkpt lat="43.74209" lon="3.51467">
        <ele>321.35</ele>
        <time>2023-02-13T13:34:23Z</time>
      </trkpt>
      <trkpt lat="43.74215" lon="3.5145">
        <ele>324.65</ele>
        <time>2023-02-13T13:34:40Z</time>
      </trkpt>
      <trkpt lat="43.74214" lon="3.51431">
        <ele>325.44</ele>
        <time>2023-02-13T13:34:56Z</time>
      </trkpt>
      <trkpt lat="43.74214" lon="3.51428">
        <ele>325.44</ele>
        <time>2023-02-13T13:34:59Z</time>
      </trkpt>
      <trkpt lat="43.74211" lon="3.51403">
        <ele>327.95</ele>
        <time>2023-02-13T13:35:15Z</time>
      </trkpt>
      <trkpt lat="43.74209" lon="3.51393">
        <ele>315.49</ele>
        <time>2023-02-13T13:35:27Z</time>
      </trkpt>
      <trkpt lat="43.74209" lon="3.51393">
        <ele>319.66</ele>
        <time>2023-02-13T13:35:28Z</time>
      </trkpt>
      <trkpt lat="43.74209" lon="3.51393">
        <ele>326.82</ele>
        <time>2023-02-13T13:35:29Z</time>
      </trkpt>
      <trkpt lat="43.74209" lon="3.51392">
        <ele>335.49</ele>
        <time>2023-02-13T13:35:30Z</time>
      </trkpt>
      <trkpt lat="43.74209" lon="3.51392">
        <ele>332.61</ele>
        <time>2023-02-13T13:35:31Z</time>
      </trkpt>
      <trkpt lat="43.74209" lon="3.51392">
        <ele>329.47</ele>
        <time>2023-02-13T13:35:33Z</time>
      </trkpt>
      <trkpt lat="43.74209" lon="3.51392">
        <ele>328.26</ele>
        <time>2023-02-13T13:35:35Z</time>
      </trkpt>
      <trkpt lat="43.74209" lon="3.51378">
        <ele>328.33</ele>
        <time>2023-02-13T13:35:53Z</time>
      </trkpt>
      <trkpt lat="43.7421" lon="3.51352">
        <ele>328.41</ele>
        <time>2023-02-13T13:36:13Z</time>
      </trkpt>
      <trkpt lat="43.74211" lon="3.51345">
        <ele>330.8</ele>
        <time>2023-02-13T13:36:19Z</time>
      </trkpt>
      <trkpt lat="43.74211" lon="3.51343">
        <ele>330.8</ele>
        <time>2023-02-13T13:36:20Z</time>
      </trkpt>
      <trkpt lat="43.74219" lon="3.51318">
        <ele>333.45</ele>
        <time>2023-02-13T13:36:40Z</time>
      </trkpt>
      <trkpt lat="43.74228" lon="3.51302">
        <ele>336.23</ele>
        <time>2023-02-13T13:36:56Z</time>
      </trkpt>
      <trkpt lat="43.74238" lon="3.51292">
        <ele>338.05</ele>
        <time>2023-02-13T13:37:11Z</time>
      </trkpt>
      <trkpt lat="43.74246" lon="3.51281">
        <ele>339.83</ele>
        <time>2023-02-13T13:37:27Z</time>
      </trkpt>
      <trkpt lat="43.7425" lon="3.51263">
        <ele>340.59</ele>
        <time>2023-02-13T13:37:44Z</time>
      </trkpt>
      <trkpt lat="43.74254" lon="3.51253">
        <ele>341.41</ele>
        <time>2023-02-13T13:37:52Z</time>
      </trkpt>
      <trkpt lat="43.7427" lon="3.51243">
        <ele>342.99</ele>
        <time>2023-02-13T13:38:09Z</time>
      </trkpt>
      <trkpt lat="43.74282" lon="3.51233">
        <ele>343.72</ele>
        <time>2023-02-13T13:38:24Z</time>
      </trkpt>
      <trkpt lat="43.74284" lon="3.51222">
        <ele>344.83</ele>
        <time>2023-02-13T13:38:40Z</time>
      </trkpt>
      <trkpt lat="43.74287" lon="3.51215">
        <ele>344.88</ele>
        <time>2023-02-13T13:38:55Z</time>
      </trkpt>
      <trkpt lat="43.74297" lon="3.5119">
        <ele>346.69</ele>
        <time>2023-02-13T13:39:16Z</time>
      </trkpt>
      <trkpt lat="43.74305" lon="3.51176">
        <ele>347.57</ele>
        <time>2023-02-13T13:39:29Z</time>
      </trkpt>
      <trkpt lat="43.74314" lon="3.51153">
        <ele>348.53</ele>
        <time>2023-02-13T13:39:48Z</time>
      </trkpt>
      <trkpt lat="43.74321" lon="3.51132">
        <ele>349.53</ele>
        <time>2023-02-13T13:40:05Z</time>
      </trkpt>
      <trkpt lat="43.74322" lon="3.5113">
        <ele>350.34</ele>
        <time>2023-02-13T13:40:07Z</time>
      </trkpt>
      <trkpt lat="43.74325" lon="3.51127">
        <ele>350.39</ele>
        <time>2023-02-13T13:40:10Z</time>
      </trkpt>
      <trkpt lat="43.74332" lon="3.51105">
        <ele>351.24</ele>
        <time>2023-02-13T13:40:28Z</time>
      </trkpt>
      <trkpt lat="43.74327" lon="3.51082">
        <ele>353.08</ele>
        <time>2023-02-13T13:40:45Z</time>
      </trkpt>
      <trkpt lat="43.74323" lon="3.51073">
        <ele>355.48</ele>
        <time>2023-02-13T13:40:52Z</time>
      </trkpt>
      <trkpt lat="43.74322" lon="3.51071">
        <ele>352.8</ele>
        <time>2023-02-13T13:40:54Z</time>
      </trkpt>
      <trkpt lat="43.74314" lon="3.51051">
        <ele>352.85</ele>
        <time>2023-02-13T13:41:10Z</time>
      </trkpt>
      <trkpt lat="43.74313" lon="3.51048">
        <ele>352.88</ele>
        <time>2023-02-13T13:41:12Z</time>
      </trkpt>
      <trkpt lat="43.74316" lon="3.51036">
        <ele>355.29</ele>
        <time>2023-02-13T13:41:21Z</time>
      </trkpt>
      <trkpt lat="43.74316" lon="3.51035">
        <ele>355.29</ele>
        <time>2023-02-13T13:41:22Z</time>
      </trkpt>
      <trkpt lat="43.7431" lon="3.51018">
        <ele>355.38</ele>
        <time>2023-02-13T13:41:37Z</time>
      </trkpt>
      <trkpt lat="43.74311" lon="3.51011">
        <ele>355.45</ele>
        <time>2023-02-13T13:41:55Z</time>
      </trkpt>
      <trkpt lat="43.74309" lon="3.50995">
        <ele>357.34</ele>
        <time>2023-02-13T13:42:12Z</time>
      </trkpt>
      <trkpt lat="43.74308" lon="3.50983">
        <ele>357.39</ele>
        <time>2023-02-13T13:42:22Z</time>
      </trkpt>
      <trkpt lat="43.74299" lon="3.50965">
        <ele>358.51</ele>
        <time>2023-02-13T13:42:38Z</time>
      </trkpt>
      <trkpt lat="43.7429" lon="3.50951">
        <ele>359.38</ele>
        <time>2023-02-13T13:42:52Z</time>
      </trkpt>
      <trkpt lat="43.74286" lon="3.50927">
        <ele>361.36</ele>
        <time>2023-02-13T13:43:08Z</time>
      </trkpt>
      <trkpt lat="43.74282" lon="3.50905">
        <ele>363.03</ele>
        <time>2023-02-13T13:43:25Z</time>
      </trkpt>
      <trkpt lat="43.74277" lon="3.50886">
        <ele>363.05</ele>
        <time>2023-02-13T13:43:40Z</time>
      </trkpt>
      <trkpt lat="43.74277" lon="3.50876">
        <ele>363.06</ele>
        <time>2023-02-13T13:43:46Z</time>
      </trkpt>
      <trkpt lat="43.74274" lon="3.50852">
        <ele>364.76</ele>
        <time>2023-02-13T13:44:04Z</time>
      </trkpt>
      <trkpt lat="43.7427" lon="3.50833">
        <ele>366.43</ele>
        <time>2023-02-13T13:44:19Z</time>
      </trkpt>
      <trkpt lat="43.74267" lon="3.50812">
        <ele>368.34</ele>
        <time>2023-02-13T13:44:38Z</time>
      </trkpt>
      <trkpt lat="43.74264" lon="3.50791">
        <ele>369.97</ele>
        <time>2023-02-13T13:44:58Z</time>
      </trkpt>
      <trkpt lat="43.74263" lon="3.50771">
        <ele>371.73</ele>
        <time>2023-02-13T13:45:14Z</time>
      </trkpt>
      <trkpt lat="43.74262" lon="3.50746">
        <ele>373.4</ele>
        <time>2023-02-13T13:45:35Z</time>
      </trkpt>
      <trkpt lat="43.74264" lon="3.50728">
        <ele>377.06</ele>
        <time>2023-02-13T13:45:52Z</time>
      </trkpt>
      <trkpt lat="43.74266" lon="3.50719">
        <ele>377.02</ele>
        <time>2023-02-13T13:46:07Z</time>
      </trkpt>
      <trkpt lat="43.74269" lon="3.50704">
        <ele>379.54</ele>
        <time>2023-02-13T13:46:21Z</time>
      </trkpt>
      <trkpt lat="43.74265" lon="3.50689">
        <ele>383.29</ele>
        <time>2023-02-13T13:46:37Z</time>
      </trkpt>
      <trkpt lat="43.74259" lon="3.50674">
        <ele>383.27</ele>
        <time>2023-02-13T13:46:51Z</time>
      </trkpt>
      <trkpt lat="43.74254" lon="3.50658">
        <ele>384.21</ele>
        <time>2023-02-13T13:47:04Z</time>
      </trkpt>
      <trkpt lat="43.74253" lon="3.50656">
        <ele>384.98</ele>
        <time>2023-02-13T13:47:19Z</time>
      </trkpt>
      <trkpt lat="43.7425" lon="3.50652">
        <ele>385.03</ele>
        <time>2023-02-13T13:47:47Z</time>
      </trkpt>
      <trkpt lat="43.74243" lon="3.50636">
        <ele>386.76</ele>
        <time>2023-02-13T13:48:05Z</time>
      </trkpt>
      <trkpt lat="43.7425" lon="3.5062">
        <ele>389.28</ele>
        <time>2023-02-13T13:48:23Z</time>
      </trkpt>
      <trkpt lat="43.74253" lon="3.50615">
        <ele>390.01</ele>
        <time>2023-02-13T13:48:40Z</time>
      </trkpt>
      <trkpt lat="43.74254" lon="3.50604">
        <ele>390.91</ele>
        <time>2023-02-13T13:48:57Z</time>
      </trkpt>
      <trkpt lat="43.74255" lon="3.50586">
        <ele>394.18</ele>
        <time>2023-02-13T13:49:14Z</time>
      </trkpt>
      <trkpt lat="43.74262" lon="3.5057">
        <ele>397.63</ele>
        <time>2023-02-13T13:49:33Z</time>
      </trkpt>
      <trkpt lat="43.74267" lon="3.50556">
        <ele>401.23</ele>
        <time>2023-02-13T13:49:52Z</time>
      </trkpt>
      <trkpt lat="43.74271" lon="3.50539">
        <ele>404.56</ele>
        <time>2023-02-13T13:50:17Z</time>
      </trkpt>
      <trkpt lat="43.74266" lon="3.50522">
        <ele>407.25</ele>
        <time>2023-02-13T13:50:38Z</time>
      </trkpt>
      <trkpt lat="43.74266" lon="3.50515">
        <ele>407.85</ele>
        <time>2023-02-13T13:50:59Z</time>
      </trkpt>
      <trkpt lat="43.74267" lon="3.50512">
        <ele>407.72</ele>
        <time>2023-02-13T13:51:30Z</time>
      </trkpt>
      <trkpt lat="43.74266" lon="3.50507">
        <ele>407.64</ele>
        <time>2023-02-13T13:52:01Z</time>
      </trkpt>
      <trkpt lat="43.74265" lon="3.5051">
        <ele>407.6</ele>
        <time>2023-02-13T13:52:26Z</time>
      </trkpt>
      <trkpt lat="43.74265" lon="3.50511">
        <ele>407.56</ele>
        <time>2023-02-13T13:52:56Z</time>
      </trkpt>
      <trkpt lat="43.74259" lon="3.50504">
        <ele>410.28</ele>
        <time>2023-02-13T13:53:19Z</time>
      </trkpt>
      <trkpt lat="43.7425" lon="3.50499">
        <ele>413.47</ele>
        <time>2023-02-13T13:53:36Z</time>
      </trkpt>
      <trkpt lat="43.74234" lon="3.50494">
        <ele>415.97</ele>
        <time>2023-02-13T13:53:56Z</time>
      </trkpt>
      <trkpt lat="43.74219" lon="3.50498">
        <ele>418.53</ele>
        <time>2023-02-13T13:54:16Z</time>
      </trkpt>
      <trkpt lat="43.74215" lon="3.50496">
        <ele>420</ele>
        <time>2023-02-13T13:54:34Z</time>
      </trkpt>
      <trkpt lat="43.74213" lon="3.50496">
        <ele>419.91</ele>
        <time>2023-02-13T13:54:56Z</time>
      </trkpt>
      <trkpt lat="43.74208" lon="3.50489">
        <ele>421.55</ele>
        <time>2023-02-13T13:55:12Z</time>
      </trkpt>
      <trkpt lat="43.74196" lon="3.50488">
        <ele>423.18</ele>
        <time>2023-02-13T13:55:25Z</time>
      </trkpt>
      <trkpt lat="43.74187" lon="3.50497">
        <ele>423.99</ele>
        <time>2023-02-13T13:55:37Z</time>
      </trkpt>
      <trkpt lat="43.74171" lon="3.50513">
        <ele>423.94</ele>
        <time>2023-02-13T13:55:56Z</time>
      </trkpt>
      <trkpt lat="43.74167" lon="3.50513">
        <ele>421.57</ele>
        <time>2023-02-13T13:56:00Z</time>
      </trkpt>
      <trkpt lat="43.74149" lon="3.5052">
        <ele>420.79</ele>
        <time>2023-02-13T13:56:18Z</time>
      </trkpt>
      <trkpt lat="43.74133" lon="3.5053">
        <ele>420.03</ele>
        <time>2023-02-13T13:56:35Z</time>
      </trkpt>
      <trkpt lat="43.74116" lon="3.50537">
        <ele>419.25</ele>
        <time>2023-02-13T13:56:54Z</time>
      </trkpt>
      <trkpt lat="43.74115" lon="3.50535">
        <ele>419.25</ele>
        <time>2023-02-13T13:57:09Z</time>
      </trkpt>
      <trkpt lat="43.74117" lon="3.50535">
        <ele>419.24</ele>
        <time>2023-02-13T13:57:32Z</time>
      </trkpt>
      <trkpt lat="43.74115" lon="3.50539">
        <ele>419.23</ele>
        <time>2023-02-13T13:57:58Z</time>
      </trkpt>
      <trkpt lat="43.74111" lon="3.50532">
        <ele>419.24</ele>
        <time>2023-02-13T13:58:13Z</time>
      </trkpt>
      <trkpt lat="43.74106" lon="3.50525">
        <ele>421.7</ele>
        <time>2023-02-13T13:58:25Z</time>
      </trkpt>
      <trkpt lat="43.741" lon="3.5051">
        <ele>423.44</ele>
        <time>2023-02-13T13:58:41Z</time>
      </trkpt>
      <trkpt lat="43.74099" lon="3.50501">
        <ele>423.33</ele>
        <time>2023-02-13T13:58:53Z</time>
      </trkpt>
      <trkpt lat="43.74095" lon="3.50477">
        <ele>424.95</ele>
        <time>2023-02-13T13:59:11Z</time>
      </trkpt>
      <trkpt lat="43.74093" lon="3.50452">
        <ele>426.54</ele>
        <time>2023-02-13T13:59:29Z</time>
      </trkpt>
      <trkpt lat="43.74098" lon="3.5043">
        <ele>428.23</ele>
        <time>2023-02-13T13:59:44Z</time>
      </trkpt>
      <trkpt lat="43.74104" lon="3.50415">
        <ele>429.07</ele>
        <time>2023-02-13T13:59:56Z</time>
      </trkpt>
      <trkpt lat="43.74112" lon="3.50395">
        <ele>430.81</ele>
        <time>2023-02-13T14:00:13Z</time>
      </trkpt>
      <trkpt lat="43.74115" lon="3.50377">
        <ele>432.64</ele>
        <time>2023-02-13T14:00:27Z</time>
      </trkpt>
      <trkpt lat="43.74117" lon="3.50361">
        <ele>434.23</ele>
        <time>2023-02-13T14:00:39Z</time>
      </trkpt>
      <trkpt lat="43.74118" lon="3.50355">
        <ele>435.12</ele>
        <time>2023-02-13T14:00:58Z</time>
      </trkpt>
      <trkpt lat="43.74119" lon="3.50349">
        <ele>435.13</ele>
        <time>2023-02-13T14:01:02Z</time>
      </trkpt>
      <trkpt lat="43.7412" lon="3.50328">
        <ele>436.86</ele>
        <time>2023-02-13T14:01:16Z</time>
      </trkpt>
      <trkpt lat="43.74121" lon="3.50326">
        <ele>436.85</ele>
        <time>2023-02-13T14:01:18Z</time>
      </trkpt>
      <trkpt lat="43.74122" lon="3.50307">
        <ele>438.4</ele>
        <time>2023-02-13T14:01:31Z</time>
      </trkpt>
      <trkpt lat="43.7412" lon="3.50289">
        <ele>440.02</ele>
        <time>2023-02-13T14:01:45Z</time>
      </trkpt>
      <trkpt lat="43.74122" lon="3.50282">
        <ele>440.05</ele>
        <time>2023-02-13T14:01:50Z</time>
      </trkpt>
      <trkpt lat="43.74123" lon="3.50277">
        <ele>440.99</ele>
        <time>2023-02-13T14:01:54Z</time>
      </trkpt>
      <trkpt lat="43.74128" lon="3.50257">
        <ele>441.78</ele>
        <time>2023-02-13T14:02:09Z</time>
      </trkpt>
      <trkpt lat="43.74134" lon="3.50238">
        <ele>442.61</ele>
        <time>2023-02-13T14:02:23Z</time>
      </trkpt>
      <trkpt lat="43.74136" lon="3.50229">
        <ele>443.46</ele>
        <time>2023-02-13T14:02:30Z</time>
      </trkpt>
      <trkpt lat="43.74136" lon="3.50219">
        <ele>444.33</ele>
        <time>2023-02-13T14:02:46Z</time>
      </trkpt>
      <trkpt lat="43.74136" lon="3.50203">
        <ele>444.37</ele>
        <time>2023-02-13T14:03:02Z</time>
      </trkpt>
      <trkpt lat="43.74136" lon="3.50202">
        <ele>444.38</ele>
        <time>2023-02-13T14:03:03Z</time>
      </trkpt>
      <trkpt lat="43.74135" lon="3.50199">
        <ele>444.38</ele>
        <time>2023-02-13T14:03:05Z</time>
      </trkpt>
      <trkpt lat="43.74133" lon="3.50194">
        <ele>444.38</ele>
        <time>2023-02-13T14:03:09Z</time>
      </trkpt>
      <trkpt lat="43.74125" lon="3.50181">
        <ele>444.42</ele>
        <time>2023-02-13T14:03:23Z</time>
      </trkpt>
      <trkpt lat="43.74111" lon="3.50169">
        <ele>444.47</ele>
        <time>2023-02-13T14:03:38Z</time>
      </trkpt>
      <trkpt lat="43.74108" lon="3.50164">
        <ele>444.49</ele>
        <time>2023-02-13T14:03:42Z</time>
      </trkpt>
      <trkpt lat="43.74098" lon="3.50146">
        <ele>444.55</ele>
        <time>2023-02-13T14:03:56Z</time>
      </trkpt>
      <trkpt lat="43.74091" lon="3.50127">
        <ele>444.63</ele>
        <time>2023-02-13T14:04:10Z</time>
      </trkpt>
      <trkpt lat="43.74089" lon="3.50118">
        <ele>444.65</ele>
        <time>2023-02-13T14:04:16Z</time>
      </trkpt>
      <trkpt lat="43.74086" lon="3.50113">
        <ele>444.67</ele>
        <time>2023-02-13T14:04:20Z</time>
      </trkpt>
      <trkpt lat="43.74073" lon="3.50098">
        <ele>444.78</ele>
        <time>2023-02-13T14:04:38Z</time>
      </trkpt>
      <trkpt lat="43.74063" lon="3.50093">
        <ele>444.84</ele>
        <time>2023-02-13T14:04:49Z</time>
      </trkpt>
      <trkpt lat="43.74061" lon="3.50092">
        <ele>442.55</ele>
        <time>2023-02-13T14:04:51Z</time>
      </trkpt>
      <trkpt lat="43.74049" lon="3.50099">
        <ele>442.62</ele>
        <time>2023-02-13T14:05:05Z</time>
      </trkpt>
      <trkpt lat="43.74037" lon="3.50113">
        <ele>442.71</ele>
        <time>2023-02-13T14:05:19Z</time>
      </trkpt>
      <trkpt lat="43.74021" lon="3.50128">
        <ele>442.78</ele>
        <time>2023-02-13T14:05:34Z</time>
      </trkpt>
      <trkpt lat="43.7402" lon="3.50129">
        <ele>442.8</ele>
        <time>2023-02-13T14:05:35Z</time>
      </trkpt>
      <trkpt lat="43.74005" lon="3.5014">
        <ele>442.84</ele>
        <time>2023-02-13T14:05:51Z</time>
      </trkpt>
      <trkpt lat="43.73993" lon="3.50156">
        <ele>442.9</ele>
        <time>2023-02-13T14:06:05Z</time>
      </trkpt>
      <trkpt lat="43.7398" lon="3.5015">
        <ele>442.94</ele>
        <time>2023-02-13T14:06:21Z</time>
      </trkpt>
      <trkpt lat="43.73977" lon="3.50125">
        <ele>442.99</ele>
        <time>2023-02-13T14:06:36Z</time>
      </trkpt>
      <trkpt lat="43.73975" lon="3.501">
        <ele>443.05</ele>
        <time>2023-02-13T14:06:53Z</time>
      </trkpt>
      <trkpt lat="43.73985" lon="3.50079">
        <ele>442.32</ele>
        <time>2023-02-13T14:07:11Z</time>
      </trkpt>
      <trkpt lat="43.7399" lon="3.50072">
        <ele>442.39</ele>
        <time>2023-02-13T14:07:25Z</time>
      </trkpt>
      <trkpt lat="43.73993" lon="3.50064">
        <ele>442.48</ele>
        <time>2023-02-13T14:07:43Z</time>
      </trkpt>
      <trkpt lat="43.73997" lon="3.5004">
        <ele>442.55</ele>
        <time>2023-02-13T14:07:59Z</time>
      </trkpt>
      <trkpt lat="43.73997" lon="3.5003">
        <ele>441.81</ele>
        <time>2023-02-13T14:08:05Z</time>
      </trkpt>
      <trkpt lat="43.73985" lon="3.50021">
        <ele>441.11</ele>
        <time>2023-02-13T14:08:18Z</time>
      </trkpt>
      <trkpt lat="43.73972" lon="3.50021">
        <ele>441.19</ele>
        <time>2023-02-13T14:08:31Z</time>
      </trkpt>
      <trkpt lat="43.73969" lon="3.50021">
        <ele>441.2</ele>
        <time>2023-02-13T14:08:33Z</time>
      </trkpt>
      <trkpt lat="43.73963" lon="3.50018">
        <ele>441.22</ele>
        <time>2023-02-13T14:08:38Z</time>
      </trkpt>
      <trkpt lat="43.73957" lon="3.50014">
        <ele>440.48</ele>
        <time>2023-02-13T14:08:44Z</time>
      </trkpt>
      <trkpt lat="43.73948" lon="3.4999">
        <ele>440.55</ele>
        <time>2023-02-13T14:09:00Z</time>
      </trkpt>
      <trkpt lat="43.73945" lon="3.4996">
        <ele>440.62</ele>
        <time>2023-02-13T14:09:18Z</time>
      </trkpt>
      <trkpt lat="43.7394" lon="3.49947">
        <ele>443.07</ele>
        <time>2023-02-13T14:09:28Z</time>
      </trkpt>
      <trkpt lat="43.73936" lon="3.4994">
        <ele>439.61</ele>
        <time>2023-02-13T14:09:39Z</time>
      </trkpt>
      <trkpt lat="43.73936" lon="3.49939">
        <ele>443.14</ele>
        <time>2023-02-13T14:09:41Z</time>
      </trkpt>
      <trkpt lat="43.73936" lon="3.49939">
        <ele>443.14</ele>
        <time>2023-02-13T14:09:42Z</time>
      </trkpt>
      <trkpt lat="43.73935" lon="3.49938">
        <ele>420.82</ele>
        <time>2023-02-13T14:09:49Z</time>
      </trkpt>
    </trkseg>
  </trk>
</gpx>